PWSweather.com
Personal Weather Stations
Station Observations
DL5ARK
SonnebergDE

SonnebergDE

Lat: 50.34904861, Lon: 11.18112087

Elevation: 1214

Station Type: Selfmade

http://www.sumbarg.de

High Low Average
Temperature 91.2°F32.9°C 58.9°F14.9°C 75.0°F23.9°C
Dew Point 70.9°F21.6°C 58.6°F14.8°C 64.0°F17.8°C
Winds 9.3 mph 15.0 kmh Calm Calm 2.0 mph SSW3.2 kmh SSW
Wind Gusts 9.3 mph15.0 kmh -- 2.0 mph3.2 kmh
Humidity 72% 35% 52%
Pressure 30.19 in1022.4 mb 30.13 in1020.3 mb -
Precipitation 0.00 in0.0 mm - -
Hour Temp Dew Point Humidity Winds Wind Gusts Pressure Precip Precip Rate Daily Precip Total
12:00 AM 62.0°F16.7°C 61.6°F16.4°C 68% Calm Calm -- 30.16 in1021.3 mb 0.00 in0.0 mm 0.00 in0.0 mm 0.00 in0.0 mm
12:03 AM 61.8°F16.6°C 61.4°F16.3°C 68% Calm Calm -- 30.16 in1021.3 mb 0.00 in0.0 mm 0.00 in0.0 mm 0.00 in0.0 mm
12:06 AM 61.4°F16.3°C 61.4°F16.3°C 68% 0.8 mph SW1.3 kmh SW 0.8 mph1.3 kmh 30.16 in1021.3 mb 0.00 in0.0 mm 0.00 in0.0 mm 0.00 in0.0 mm
12:09 AM 61.4°F16.3°C 61.6°F16.4°C 69% Calm Calm -- 30.16 in1021.3 mb 0.00 in0.0 mm 0.00 in0.0 mm 0.00 in0.0 mm
12:12 AM 61.6°F16.4°C 61.6°F16.4°C 69% Calm Calm -- 30.17 in1021.7 mb 0.00 in0.0 mm 0.00 in0.0 mm 0.00 in0.0 mm
12:15 AM 61.3°F16.3°C 61.5°F16.4°C 69% 1.6 mph ESE2.6 kmh ESE 1.6 mph2.6 kmh 30.16 in1021.3 mb 0.00 in0.0 mm 0.00 in0.0 mm 0.00 in0.0 mm
12:18 AM 61.3°F16.3°C 61.3°F16.3°C 69% 0.4 mph SE0.6 kmh SE 0.4 mph0.6 kmh 30.16 in1021.3 mb 0.00 in0.0 mm 0.00 in0.0 mm 0.00 in0.0 mm
12:21 AM 61.7°F16.5°C 61.8°F16.6°C 70% 1.6 mph SSE2.6 kmh SSE 1.6 mph2.6 kmh 30.16 in1021.3 mb 0.00 in0.0 mm 0.00 in0.0 mm 0.00 in0.0 mm
12:24 AM 62.0°F16.7°C 61.6°F16.4°C 70% 1.2 mph SSE1.9 kmh SSE 1.2 mph1.9 kmh 30.16 in1021.3 mb 0.00 in0.0 mm 0.00 in0.0 mm 0.00 in0.0 mm
12:27 AM 62.7°F17.1°C 61.4°F16.3°C 70% 5.2 mph ESE8.4 kmh ESE 5.2 mph8.4 kmh 30.16 in1021.3 mb 0.00 in0.0 mm 0.00 in0.0 mm 0.00 in0.0 mm
12:30 AM 63.4°F17.4°C 61.6°F16.4°C 70% 1.6 mph SE2.6 kmh SE 1.6 mph2.6 kmh 30.16 in1021.3 mb 0.00 in0.0 mm 0.00 in0.0 mm 0.00 in0.0 mm
12:33 AM 64.6°F18.1°C 61.4°F16.3°C 69% 6.9 mph SE11.1 kmh SE 6.9 mph11.1 kmh 30.16 in1021.3 mb 0.00 in0.0 mm 0.00 in0.0 mm 0.00 in0.0 mm
12:36 AM 64.9°F18.3°C 61.2°F16.2°C 69% 6.1 mph NNW9.8 kmh NNW 6.1 mph9.8 kmh 30.16 in1021.3 mb 0.00 in0.0 mm 0.00 in0.0 mm 0.00 in0.0 mm
12:39 AM 65.1°F18.4°C 61.4°F16.3°C 69% 3.2 mph SE5.1 kmh SE 3.2 mph5.1 kmh 30.16 in1021.3 mb 0.00 in0.0 mm 0.00 in0.0 mm 0.00 in0.0 mm
12:42 AM 65.1°F18.4°C 61.8°F16.6°C 69% 6.1 mph NNW9.8 kmh NNW 6.1 mph9.8 kmh 30.17 in1021.7 mb 0.00 in0.0 mm 0.00 in0.0 mm 0.00 in0.0 mm
12:45 AM 64.9°F18.3°C 61.5°F16.4°C 68% 3.2 mph SE5.1 kmh SE 3.3 mph5.3 kmh 30.17 in1021.7 mb 0.00 in0.0 mm 0.00 in0.0 mm 0.00 in0.0 mm
12:48 AM 65.1°F18.4°C 61.4°F16.3°C 68% 4.2 mph SE6.8 kmh SE 4.2 mph6.8 kmh 30.17 in1021.7 mb 0.00 in0.0 mm 0.00 in0.0 mm 0.00 in0.0 mm
12:51 AM 65.2°F18.4°C 61.7°F16.5°C 68% 4.0 mph NNW6.4 kmh NNW 4.0 mph6.4 kmh 30.17 in1021.7 mb 0.00 in0.0 mm 0.00 in0.0 mm 0.00 in0.0 mm
12:54 AM 65.1°F18.4°C 61.1°F16.2°C 68% 2.8 mph SE4.5 kmh SE 2.9 mph4.7 kmh 30.17 in1021.7 mb 0.00 in0.0 mm 0.00 in0.0 mm 0.00 in0.0 mm
12:57 AM 65.0°F18.3°C 61.7°F16.5°C 68% 4.8 mph SE7.7 kmh SE 4.9 mph7.9 kmh 30.17 in1021.7 mb 0.00 in0.0 mm 0.00 in0.0 mm 0.00 in0.0 mm
01:00 AM 65.2°F18.4°C 61.2°F16.2°C 67% 3.2 mph NNW5.1 kmh NNW 3.3 mph5.3 kmh 30.17 in1021.7 mb 0.00 in0.0 mm 0.00 in0.0 mm 0.00 in0.0 mm
01:03 AM 65.3°F18.5°C 61.4°F16.3°C 68% 4.4 mph SE7.1 kmh SE 4.4 mph7.1 kmh 30.17 in1021.7 mb 0.00 in0.0 mm 0.00 in0.0 mm 0.00 in0.0 mm
01:06 AM 65.1°F18.4°C 61.4°F16.3°C 67% 2.8 mph SE4.5 kmh SE 2.8 mph4.5 kmh 30.17 in1021.7 mb 0.00 in0.0 mm 0.00 in0.0 mm 0.00 in0.0 mm
01:09 AM 64.9°F18.3°C 61.6°F16.4°C 68% 2.8 mph SE4.5 kmh SE 2.8 mph4.5 kmh 30.17 in1021.7 mb 0.00 in0.0 mm 0.00 in0.0 mm 0.00 in0.0 mm
01:12 AM 64.7°F18.2°C 61.4°F16.3°C 68% 5.0 mph NNW8.0 kmh NNW 5.1 mph8.2 kmh 30.17 in1021.7 mb 0.00 in0.0 mm 0.00 in0.0 mm 0.00 in0.0 mm
01:15 AM 65.0°F18.3°C 61.2°F16.2°C 68% 4.0 mph NNW6.4 kmh NNW 4.0 mph6.4 kmh 30.17 in1021.7 mb 0.00 in0.0 mm 0.00 in0.0 mm 0.00 in0.0 mm
01:18 AM 64.9°F18.3°C 61.4°F16.3°C 68% 6.1 mph SE9.8 kmh SE 6.1 mph9.8 kmh 30.17 in1021.7 mb 0.00 in0.0 mm 0.00 in0.0 mm 0.00 in0.0 mm
01:21 AM 64.7°F18.2°C 61.0°F16.1°C 68% 4.0 mph NNW6.4 kmh NNW 4.1 mph6.6 kmh 30.17 in1021.7 mb 0.00 in0.0 mm 0.00 in0.0 mm 0.00 in0.0 mm
01:24 AM 64.6°F18.1°C 61.2°F16.2°C 68% 3.1 mph NNW5.0 kmh NNW 3.1 mph5.0 kmh 30.18 in1022.0 mb 0.00 in0.0 mm 0.00 in0.0 mm 0.00 in0.0 mm
01:27 AM 65.0°F18.3°C 61.0°F16.1°C 67% 3.2 mph SE5.1 kmh SE 3.3 mph5.3 kmh 30.17 in1021.7 mb 0.00 in0.0 mm 0.00 in0.0 mm 0.00 in0.0 mm
01:30 AM 65.0°F18.3°C 61.2°F16.2°C 68% 2.8 mph SE4.5 kmh SE 2.8 mph4.5 kmh 30.17 in1021.7 mb 0.00 in0.0 mm 0.00 in0.0 mm 0.00 in0.0 mm
01:33 AM 64.9°F18.3°C 61.0°F16.1°C 67% 4.0 mph ESE6.4 kmh ESE 4.1 mph6.6 kmh 30.17 in1021.7 mb 0.00 in0.0 mm 0.00 in0.0 mm 0.00 in0.0 mm
01:36 AM 65.0°F18.3°C 61.0°F16.1°C 67% 5.6 mph SE9.0 kmh SE 5.6 mph9.0 kmh 30.17 in1021.7 mb 0.00 in0.0 mm 0.00 in0.0 mm 0.00 in0.0 mm
01:39 AM 65.0°F18.3°C 60.8°F16.0°C 67% 6.4 mph NNW10.3 kmh NNW 6.4 mph10.3 kmh 30.17 in1021.7 mb 0.00 in0.0 mm 0.00 in0.0 mm 0.00 in0.0 mm
01:42 AM 65.0°F18.3°C 60.8°F16.0°C 67% 4.4 mph SE7.1 kmh SE 4.5 mph7.2 kmh 30.17 in1021.7 mb 0.00 in0.0 mm 0.00 in0.0 mm 0.00 in0.0 mm
01:45 AM 64.9°F18.3°C 61.1°F16.2°C 68% 4.4 mph SE7.1 kmh SE 4.4 mph7.1 kmh 30.17 in1021.7 mb 0.00 in0.0 mm 0.00 in0.0 mm 0.00 in0.0 mm
01:48 AM 65.1°F18.4°C 60.9°F16.1°C 67% 4.4 mph SE7.1 kmh SE 4.5 mph7.2 kmh 30.17 in1021.7 mb 0.00 in0.0 mm 0.00 in0.0 mm 0.00 in0.0 mm
01:51 AM 64.5°F18.1°C 61.0°F16.1°C 68% 3.6 mph SE5.8 kmh SE 3.7 mph6.0 kmh 30.17 in1021.7 mb 0.00 in0.0 mm 0.00 in0.0 mm 0.00 in0.0 mm
01:54 AM 64.4°F18.0°C 60.7°F15.9°C 67% 3.6 mph NNW5.8 kmh NNW 3.7 mph6.0 kmh 30.17 in1021.7 mb 0.00 in0.0 mm 0.00 in0.0 mm 0.00 in0.0 mm
02:00 AM 64.1°F17.8°C 60.9°F16.1°C 68% 2.4 mph SE3.9 kmh SE 2.4 mph3.9 kmh 30.17 in1021.7 mb 0.00 in0.0 mm 0.00 in0.0 mm 0.00 in0.0 mm
02:03 AM 64.0°F17.8°C 60.7°F15.9°C 68% 2.0 mph SE3.2 kmh SE 2.0 mph3.2 kmh 30.17 in1021.7 mb 0.00 in0.0 mm 0.00 in0.0 mm 0.00 in0.0 mm
02:06 AM 63.4°F17.4°C 60.8°F16.0°C 68% 2.8 mph NNW4.5 kmh NNW 2.8 mph4.5 kmh 30.17 in1021.7 mb 0.00 in0.0 mm 0.00 in0.0 mm 0.00 in0.0 mm
02:09 AM 63.7°F17.6°C 60.6°F15.9°C 68% 4.4 mph NNW7.1 kmh NNW 4.5 mph7.2 kmh 30.16 in1021.3 mb 0.00 in0.0 mm 0.00 in0.0 mm 0.00 in0.0 mm
02:12 AM 63.3°F17.4°C 60.9°F16.1°C 68% 2.8 mph ESE4.5 kmh ESE 2.8 mph4.5 kmh 30.16 in1021.3 mb 0.00 in0.0 mm 0.00 in0.0 mm 0.00 in0.0 mm
02:15 AM 63.5°F17.5°C 60.8°F16.0°C 68% 3.6 mph SE5.8 kmh SE 3.7 mph6.0 kmh 30.16 in1021.3 mb 0.00 in0.0 mm 0.00 in0.0 mm 0.00 in0.0 mm
02:18 AM 63.8°F17.7°C 60.2°F15.7°C 68% 2.8 mph SE4.5 kmh SE 2.8 mph4.5 kmh 30.16 in1021.3 mb 0.00 in0.0 mm 0.00 in0.0 mm 0.00 in0.0 mm
02:21 AM 63.5°F17.5°C 60.3°F15.7°C 68% 2.8 mph SE4.5 kmh SE 2.8 mph4.5 kmh 30.16 in1021.3 mb 0.00 in0.0 mm 0.00 in0.0 mm 0.00 in0.0 mm
02:24 AM 63.2°F17.3°C 60.4°F15.8°C 68% 4.4 mph SE7.1 kmh SE 4.4 mph7.1 kmh 30.16 in1021.3 mb 0.00 in0.0 mm 0.00 in0.0 mm 0.00 in0.0 mm
02:27 AM 64.1°F17.8°C 60.1°F15.6°C 68% 4.8 mph NNW7.7 kmh NNW 4.9 mph7.9 kmh 30.16 in1021.3 mb 0.00 in0.0 mm 0.00 in0.0 mm 0.00 in0.0 mm
02:30 AM 63.6°F17.6°C 60.1°F15.6°C 67% 2.8 mph SE4.5 kmh SE 2.8 mph4.5 kmh 30.16 in1021.3 mb 0.00 in0.0 mm 0.00 in0.0 mm 0.00 in0.0 mm
02:33 AM 64.3°F17.9°C 59.8°F15.4°C 67% 2.4 mph NNW3.9 kmh NNW 2.4 mph3.9 kmh 30.16 in1021.3 mb 0.00 in0.0 mm 0.00 in0.0 mm 0.00 in0.0 mm
02:36 AM 64.3°F17.9°C 60.0°F15.6°C 67% 4.8 mph SE7.7 kmh SE 4.8 mph7.7 kmh 30.16 in1021.3 mb 0.00 in0.0 mm 0.00 in0.0 mm 0.00 in0.0 mm
02:39 AM 64.4°F18.0°C 59.9°F15.5°C 67% 4.0 mph SE6.4 kmh SE 4.1 mph6.6 kmh 30.16 in1021.3 mb 0.00 in0.0 mm 0.00 in0.0 mm 0.00 in0.0 mm
02:42 AM 64.3°F17.9°C 59.9°F15.5°C 67% 3.8 mph ESE6.1 kmh ESE 3.8 mph6.1 kmh 30.16 in1021.3 mb 0.00 in0.0 mm 0.00 in0.0 mm 0.00 in0.0 mm
02:45 AM 64.3°F17.9°C 59.8°F15.4°C 67% 4.0 mph SE6.4 kmh SE 4.0 mph6.4 kmh 30.16 in1021.3 mb 0.00 in0.0 mm 0.00 in0.0 mm 0.00 in0.0 mm
02:48 AM 64.2°F17.9°C 59.9°F15.5°C 67% 4.9 mph SE7.9 kmh SE 4.9 mph7.9 kmh 30.16 in1021.3 mb 0.00 in0.0 mm 0.00 in0.0 mm 0.00 in0.0 mm
02:51 AM 64.6°F18.1°C 59.8°F15.4°C 66% 5.7 mph SE9.2 kmh SE 5.7 mph9.2 kmh 30.16 in1021.3 mb 0.00 in0.0 mm 0.00 in0.0 mm 0.00 in0.0 mm
02:54 AM 64.3°F17.9°C 60.2°F15.7°C 66% 3.6 mph NNW5.8 kmh NNW 3.6 mph5.8 kmh 30.16 in1021.3 mb 0.00 in0.0 mm 0.00 in0.0 mm 0.00 in0.0 mm
02:57 AM 64.3°F17.9°C 60.1°F15.6°C 67% 2.4 mph SE3.9 kmh SE 2.4 mph3.9 kmh 30.16 in1021.3 mb 0.00 in0.0 mm 0.00 in0.0 mm 0.00 in0.0 mm
03:00 AM 64.3°F17.9°C 59.9°F15.5°C 66% 5.0 mph NNW8.0 kmh NNW 5.0 mph8.0 kmh 30.16 in1021.3 mb 0.00 in0.0 mm 0.00 in0.0 mm 0.00 in0.0 mm
03:03 AM 64.4°F18.0°C 59.8°F15.4°C 66% 3.2 mph SE5.1 kmh SE 3.3 mph5.3 kmh 30.16 in1021.3 mb 0.00 in0.0 mm 0.00 in0.0 mm 0.00 in0.0 mm
03:06 AM 64.1°F17.8°C 59.9°F15.5°C 67% 9.3 mph SE15.0 kmh SE 9.3 mph15.0 kmh 30.16 in1021.3 mb 0.00 in0.0 mm 0.00 in0.0 mm 0.00 in0.0 mm
03:09 AM 64.3°F17.9°C 59.7°F15.4°C 66% 3.1 mph SE5.0 kmh SE 3.1 mph5.0 kmh 30.16 in1021.3 mb 0.00 in0.0 mm 0.00 in0.0 mm 0.00 in0.0 mm
03:12 AM 63.5°F17.5°C 59.7°F15.4°C 67% 5.2 mph NNW8.4 kmh NNW 5.2 mph8.4 kmh 30.16 in1021.3 mb 0.00 in0.0 mm 0.00 in0.0 mm 0.00 in0.0 mm
03:15 AM 63.7°F17.6°C 59.9°F15.5°C 67% 4.4 mph NNW7.1 kmh NNW 4.5 mph7.2 kmh 30.16 in1021.3 mb 0.00 in0.0 mm 0.00 in0.0 mm 0.00 in0.0 mm
03:18 AM 64.0°F17.8°C 59.8°F15.4°C 67% 3.1 mph SE5.0 kmh SE 3.1 mph5.0 kmh 30.16 in1021.3 mb 0.00 in0.0 mm 0.00 in0.0 mm 0.00 in0.0 mm
03:21 AM 63.6°F17.6°C 60.2°F15.7°C 67% 3.4 mph SSE5.5 kmh SSE 3.4 mph5.5 kmh 30.16 in1021.3 mb 0.00 in0.0 mm 0.00 in0.0 mm 0.00 in0.0 mm
03:24 AM 63.1°F17.3°C 59.9°F15.5°C 67% 2.0 mph NNW3.2 kmh NNW 2.0 mph3.2 kmh 30.16 in1021.3 mb 0.00 in0.0 mm 0.00 in0.0 mm 0.00 in0.0 mm
03:27 AM 63.3°F17.4°C 59.9°F15.5°C 68% 3.9 mph NNW6.3 kmh NNW 3.9 mph6.3 kmh 30.16 in1021.3 mb 0.00 in0.0 mm 0.00 in0.0 mm 0.00 in0.0 mm
03:30 AM 62.9°F17.2°C 59.9°F15.5°C 67% 5.4 mph SE8.7 kmh SE 5.4 mph8.7 kmh 30.16 in1021.3 mb 0.00 in0.0 mm 0.00 in0.0 mm 0.00 in0.0 mm
03:36 AM 62.9°F17.2°C 59.6°F15.3°C 68% 1.6 mph NNW2.6 kmh NNW 1.6 mph2.6 kmh 30.16 in1021.3 mb 0.00 in0.0 mm 0.00 in0.0 mm 0.00 in0.0 mm
03:39 AM 62.6°F17.0°C 59.6°F15.3°C 68% 4.9 mph ESE7.9 kmh ESE 4.9 mph7.9 kmh 30.16 in1021.3 mb 0.00 in0.0 mm 0.00 in0.0 mm 0.00 in0.0 mm
03:42 AM 62.0°F16.7°C 59.5°F15.3°C 68% 3.9 mph SE6.3 kmh SE 3.9 mph6.3 kmh 30.16 in1021.3 mb 0.00 in0.0 mm 0.00 in0.0 mm 0.00 in0.0 mm
03:45 AM 62.0°F16.7°C 59.8°F15.4°C 68% 2.0 mph SE3.2 kmh SE 2.0 mph3.2 kmh 30.17 in1021.7 mb 0.00 in0.0 mm 0.00 in0.0 mm 0.00 in0.0 mm
03:51 AM 61.5°F16.4°C 59.5°F15.3°C 68% Calm Calm -- 30.16 in1021.3 mb 0.00 in0.0 mm 0.00 in0.0 mm 0.00 in0.0 mm
03:54 AM 61.1°F16.2°C 59.2°F15.1°C 68% Calm Calm -- 30.16 in1021.3 mb 0.00 in0.0 mm 0.00 in0.0 mm 0.00 in0.0 mm
03:57 AM 60.9°F16.1°C 59.3°F15.2°C 68% Calm Calm -- 30.17 in1021.7 mb 0.00 in0.0 mm 0.00 in0.0 mm 0.00 in0.0 mm
04:00 AM 61.1°F16.2°C 59.1°F15.1°C 68% Calm Calm -- 30.17 in1021.7 mb 0.00 in0.0 mm 0.00 in0.0 mm 0.00 in0.0 mm
04:03 AM 60.7°F15.9°C 59.3°F15.2°C 68% Calm Calm -- 30.17 in1021.7 mb 0.00 in0.0 mm 0.00 in0.0 mm 0.00 in0.0 mm
04:06 AM 60.2°F15.7°C 59.2°F15.1°C 69% Calm Calm -- 30.17 in1021.7 mb 0.00 in0.0 mm 0.00 in0.0 mm 0.00 in0.0 mm
04:09 AM 59.7°F15.4°C 59.2°F15.1°C 69% Calm Calm -- 30.17 in1021.7 mb 0.00 in0.0 mm 0.00 in0.0 mm 0.00 in0.0 mm
04:12 AM 60.4°F15.8°C 58.9°F14.9°C 68% Calm Calm -- 30.18 in1022.0 mb 0.00 in0.0 mm 0.00 in0.0 mm 0.00 in0.0 mm
04:15 AM 59.9°F15.5°C 59.1°F15.1°C 69% Calm Calm -- 30.17 in1021.7 mb 0.00 in0.0 mm 0.00 in0.0 mm 0.00 in0.0 mm
04:18 AM 59.9°F15.5°C 59.0°F15.0°C 69% Calm Calm -- 30.18 in1022.0 mb 0.00 in0.0 mm 0.00 in0.0 mm 0.00 in0.0 mm
04:21 AM 60.1°F15.6°C 59.1°F15.1°C 69% Calm Calm -- 30.17 in1021.7 mb 0.00 in0.0 mm 0.00 in0.0 mm 0.00 in0.0 mm
04:24 AM 59.6°F15.3°C 58.8°F14.9°C 69% Calm Calm -- 30.17 in1021.7 mb 0.00 in0.0 mm 0.00 in0.0 mm 0.00 in0.0 mm
04:27 AM 59.6°F15.3°C 58.6°F14.8°C 69% Calm Calm -- 30.18 in1022.0 mb 0.00 in0.0 mm 0.00 in0.0 mm 0.00 in0.0 mm
04:30 AM 59.1°F15.1°C 58.7°F14.8°C 69% Calm Calm -- 30.18 in1022.0 mb 0.00 in0.0 mm 0.00 in0.0 mm 0.00 in0.0 mm
04:33 AM 59.8°F15.4°C 58.8°F14.9°C 70% Calm Calm -- 30.17 in1021.7 mb 0.00 in0.0 mm 0.00 in0.0 mm 0.00 in0.0 mm
04:36 AM 59.8°F15.4°C 58.8°F14.9°C 70% Calm Calm -- 30.18 in1022.0 mb 0.00 in0.0 mm 0.00 in0.0 mm 0.00 in0.0 mm
04:39 AM 59.1°F15.1°C 59.0°F15.0°C 71% Calm Calm -- 30.18 in1022.0 mb 0.00 in0.0 mm 0.00 in0.0 mm 0.00 in0.0 mm
04:42 AM 59.7°F15.4°C 59.1°F15.1°C 71% Calm Calm -- 30.18 in1022.0 mb 0.00 in0.0 mm 0.00 in0.0 mm 0.00 in0.0 mm
04:45 AM 59.8°F15.4°C 58.9°F14.9°C 71% Calm Calm -- 30.18 in1022.0 mb 0.00 in0.0 mm 0.00 in0.0 mm 0.00 in0.0 mm
04:48 AM 58.9°F14.9°C 59.1°F15.1°C 71% Calm Calm -- 30.18 in1022.0 mb 0.00 in0.0 mm 0.00 in0.0 mm 0.00 in0.0 mm
04:51 AM 59.0°F15.0°C 58.8°F14.9°C 71% Calm Calm -- 30.18 in1022.0 mb 0.00 in0.0 mm 0.00 in0.0 mm 0.00 in0.0 mm
04:54 AM 59.1°F15.1°C 59.1°F15.1°C 71% Calm Calm -- 30.18 in1022.0 mb 0.00 in0.0 mm 0.00 in0.0 mm 0.00 in0.0 mm
04:57 AM 58.9°F14.9°C 59.1°F15.1°C 72% Calm Calm -- 30.18 in1022.0 mb 0.00 in0.0 mm 0.00 in0.0 mm 0.00 in0.0 mm
05:00 AM 59.3°F15.2°C 59.4°F15.2°C 72% Calm Calm -- 30.18 in1022.0 mb 0.00 in0.0 mm 0.00 in0.0 mm 0.00 in0.0 mm
05:03 AM 59.5°F15.3°C 59.4°F15.2°C 72% Calm Calm -- 30.18 in1022.0 mb 0.00 in0.0 mm 0.00 in0.0 mm 0.00 in0.0 mm
05:06 AM 59.5°F15.3°C 59.9°F15.5°C 72% Calm Calm -- 30.18 in1022.0 mb 0.00 in0.0 mm 0.00 in0.0 mm 0.00 in0.0 mm
05:09 AM 59.6°F15.3°C 60.0°F15.6°C 72% Calm Calm -- 30.18 in1022.0 mb 0.00 in0.0 mm 0.00 in0.0 mm 0.00 in0.0 mm
05:12 AM 59.8°F15.4°C 59.9°F15.5°C 71% Calm Calm -- 30.18 in1022.0 mb 0.00 in0.0 mm 0.00 in0.0 mm 0.00 in0.0 mm
05:15 AM 59.7°F15.4°C 60.4°F15.8°C 72% Calm Calm -- 30.18 in1022.0 mb 0.00 in0.0 mm 0.00 in0.0 mm 0.00 in0.0 mm
05:18 AM 60.0°F15.6°C 61.0°F16.1°C 71% Calm Calm -- 30.18 in1022.0 mb 0.00 in0.0 mm 0.00 in0.0 mm 0.00 in0.0 mm
05:24 AM 60.9°F16.1°C 61.2°F16.2°C 69% Calm Calm -- 30.18 in1022.0 mb 0.00 in0.0 mm 0.00 in0.0 mm 0.00 in0.0 mm
05:27 AM 61.5°F16.4°C 61.1°F16.2°C 68% Calm Calm -- 30.18 in1022.0 mb 0.00 in0.0 mm 0.00 in0.0 mm 0.00 in0.0 mm
05:30 AM 61.9°F16.6°C 61.2°F16.2°C 67% Calm Calm -- 30.18 in1022.0 mb 0.00 in0.0 mm 0.00 in0.0 mm 0.00 in0.0 mm
05:33 AM 62.5°F16.9°C 61.4°F16.3°C 67% Calm Calm -- 30.18 in1022.0 mb 0.00 in0.0 mm 0.00 in0.0 mm 0.00 in0.0 mm
05:39 AM 64.5°F18.1°C 62.0°F16.7°C 67% 0.4 mph SW0.6 kmh SW 0.4 mph0.6 kmh 30.19 in1022.4 mb 0.00 in0.0 mm 0.00 in0.0 mm 0.00 in0.0 mm
05:48 AM 66.7°F19.3°C 63.1°F17.3°C 64% Calm Calm -- 30.18 in1022.0 mb 0.00 in0.0 mm 0.00 in0.0 mm 0.00 in0.0 mm
05:51 AM 67.4°F19.7°C 63.4°F17.4°C 63% Calm Calm -- 30.18 in1022.0 mb 0.00 in0.0 mm 0.00 in0.0 mm 0.00 in0.0 mm
05:54 AM 67.3°F19.6°C 63.4°F17.4°C 62% Calm Calm -- 30.18 in1022.0 mb 0.00 in0.0 mm 0.00 in0.0 mm 0.00 in0.0 mm
05:57 AM 68.3°F20.2°C 63.8°F17.7°C 61% 0.4 mph SE0.6 kmh SE 0.4 mph0.6 kmh 30.18 in1022.0 mb 0.00 in0.0 mm 0.00 in0.0 mm 0.00 in0.0 mm
06:00 AM 69.1°F20.6°C 63.5°F17.5°C 60% 1.2 mph SE1.9 kmh SE 1.2 mph1.9 kmh 30.18 in1022.0 mb 0.00 in0.0 mm 0.00 in0.0 mm 0.00 in0.0 mm
06:03 AM 69.8°F21.0°C 64.2°F17.9°C 60% 0.4 mph SE0.6 kmh SE 0.4 mph0.6 kmh 30.18 in1022.0 mb 0.00 in0.0 mm 0.00 in0.0 mm 0.00 in0.0 mm
06:06 AM 70.4°F21.3°C 64.1°F17.8°C 59% 0.4 mph NNW0.6 kmh NNW 0.4 mph0.6 kmh 30.18 in1022.0 mb 0.00 in0.0 mm 0.00 in0.0 mm 0.00 in0.0 mm
06:09 AM 71.3°F21.8°C 64.3°F17.9°C 58% 0.4 mph NNW0.6 kmh NNW 0.4 mph0.6 kmh 30.18 in1022.0 mb 0.00 in0.0 mm 0.00 in0.0 mm 0.00 in0.0 mm
06:12 AM 71.9°F22.2°C 64.7°F18.2°C 57% 0.8 mph ESE1.3 kmh ESE 0.8 mph1.3 kmh 30.18 in1022.0 mb 0.00 in0.0 mm 0.00 in0.0 mm 0.00 in0.0 mm
06:15 AM 72.4°F22.4°C 65.2°F18.4°C 58% Calm Calm -- 30.18 in1022.0 mb 0.00 in0.0 mm 0.00 in0.0 mm 0.00 in0.0 mm
06:18 AM 72.7°F22.6°C 65.1°F18.4°C 57% Calm Calm -- 30.18 in1022.0 mb 0.00 in0.0 mm 0.00 in0.0 mm 0.00 in0.0 mm
06:21 AM 73.5°F23.1°C 65.7°F18.7°C 57% 1.2 mph SE1.9 kmh SE 1.2 mph1.9 kmh 30.18 in1022.0 mb 0.00 in0.0 mm 0.00 in0.0 mm 0.00 in0.0 mm
06:24 AM 73.7°F23.2°C 65.5°F18.6°C 55% 1.1 mph SE1.8 kmh SE 1.2 mph1.9 kmh 30.18 in1022.0 mb 0.00 in0.0 mm 0.00 in0.0 mm 0.00 in0.0 mm
06:30 AM 75.0°F23.9°C 64.4°F18.0°C 52% 1.6 mph SE2.6 kmh SE 1.6 mph2.6 kmh 30.18 in1022.0 mb 0.00 in0.0 mm 0.00 in0.0 mm 0.00 in0.0 mm
06:33 AM 75.1°F23.9°C 64.3°F17.9°C 51% 1.6 mph SE2.6 kmh SE 1.6 mph2.6 kmh 30.18 in1022.0 mb 0.00 in0.0 mm 0.00 in0.0 mm 0.00 in0.0 mm
06:36 AM 75.5°F24.2°C 65.2°F18.4°C 52% 1.2 mph SE1.9 kmh SE 1.2 mph1.9 kmh 30.18 in1022.0 mb 0.00 in0.0 mm 0.00 in0.0 mm 0.00 in0.0 mm
06:39 AM 75.7°F24.3°C 65.5°F18.6°C 53% 0.8 mph SE1.3 kmh SE 0.8 mph1.3 kmh 30.18 in1022.0 mb 0.00 in0.0 mm 0.00 in0.0 mm 0.00 in0.0 mm
06:42 AM 75.3°F24.1°C 65.2°F18.4°C 52% 3.9 mph ESE6.3 kmh ESE 3.9 mph6.3 kmh 30.18 in1022.0 mb 0.00 in0.0 mm 0.00 in0.0 mm 0.00 in0.0 mm
06:45 AM 75.5°F24.2°C 65.0°F18.3°C 52% 2.0 mph SE3.2 kmh SE 2.0 mph3.2 kmh 30.18 in1022.0 mb 0.00 in0.0 mm 0.00 in0.0 mm 0.00 in0.0 mm
06:48 AM 75.4°F24.1°C 63.5°F17.5°C 49% 5.7 mph NNW9.2 kmh NNW 5.7 mph9.2 kmh 30.19 in1022.4 mb 0.00 in0.0 mm 0.00 in0.0 mm 0.00 in0.0 mm
06:51 AM 76.3°F24.6°C 64.0°F17.8°C 50% 2.0 mph NNW3.2 kmh NNW 2.0 mph3.2 kmh 30.18 in1022.0 mb 0.00 in0.0 mm 0.00 in0.0 mm 0.00 in0.0 mm
06:54 AM 76.6°F24.8°C 64.6°F18.1°C 51% 2.4 mph SE3.9 kmh SE 2.4 mph3.9 kmh 30.18 in1022.0 mb 0.00 in0.0 mm 0.00 in0.0 mm 0.00 in0.0 mm
06:57 AM 77.3°F25.2°C 64.1°F17.8°C 49% 1.6 mph SE2.6 kmh SE 1.6 mph2.6 kmh 30.18 in1022.0 mb 0.00 in0.0 mm 0.00 in0.0 mm 0.00 in0.0 mm
07:00 AM 76.6°F24.8°C 63.6°F17.6°C 49% 2.7 mph SE4.3 kmh SE 2.7 mph4.3 kmh 30.18 in1022.0 mb 0.00 in0.0 mm 0.00 in0.0 mm 0.00 in0.0 mm
07:03 AM 76.8°F24.9°C 63.9°F17.7°C 49% 1.6 mph SE2.6 kmh SE 1.6 mph2.6 kmh 30.18 in1022.0 mb 0.00 in0.0 mm 0.00 in0.0 mm 0.00 in0.0 mm
07:06 AM 77.1°F25.1°C 63.2°F17.3°C 49% 4.7 mph ESE7.6 kmh ESE 4.7 mph7.6 kmh 30.19 in1022.4 mb 0.00 in0.0 mm 0.00 in0.0 mm 0.00 in0.0 mm
07:09 AM 77.0°F25.0°C 63.4°F17.4°C 49% 3.8 mph NNW6.1 kmh NNW 3.9 mph6.3 kmh 30.19 in1022.4 mb 0.00 in0.0 mm 0.00 in0.0 mm 0.00 in0.0 mm
07:12 AM 77.3°F25.2°C 65.5°F18.6°C 53% 1.6 mph SE2.6 kmh SE 1.6 mph2.6 kmh 30.18 in1022.0 mb 0.00 in0.0 mm 0.00 in0.0 mm 0.00 in0.0 mm
07:15 AM 77.5°F25.3°C 64.2°F17.9°C 50% 3.6 mph ESE5.8 kmh ESE 3.6 mph5.8 kmh 30.18 in1022.0 mb 0.00 in0.0 mm 0.00 in0.0 mm 0.00 in0.0 mm
07:18 AM 76.9°F24.9°C 64.2°F17.9°C 50% 1.5 mph NNW2.4 kmh NNW 1.6 mph2.6 kmh 30.18 in1022.0 mb 0.00 in0.0 mm 0.00 in0.0 mm 0.00 in0.0 mm
07:21 AM 76.8°F24.9°C 63.5°F17.5°C 50% 3.1 mph SE5.0 kmh SE 3.1 mph5.0 kmh 30.19 in1022.4 mb 0.00 in0.0 mm 0.00 in0.0 mm 0.00 in0.0 mm
07:24 AM 76.0°F24.4°C 63.5°F17.5°C 50% 2.4 mph SE3.9 kmh SE 2.4 mph3.9 kmh 30.18 in1022.0 mb 0.00 in0.0 mm 0.00 in0.0 mm 0.00 in0.0 mm
07:27 AM 76.6°F24.8°C 63.3°F17.4°C 51% 2.0 mph SE3.2 kmh SE 2.0 mph3.2 kmh 30.18 in1022.0 mb 0.00 in0.0 mm 0.00 in0.0 mm 0.00 in0.0 mm
07:30 AM 76.4°F24.7°C 63.7°F17.6°C 51% 6.5 mph SE10.5 kmh SE 6.5 mph10.5 kmh 30.19 in1022.4 mb 0.00 in0.0 mm 0.00 in0.0 mm 0.00 in0.0 mm
07:33 AM 76.6°F24.8°C 64.3°F17.9°C 52% 4.0 mph ESE6.4 kmh ESE 4.0 mph6.4 kmh 30.19 in1022.4 mb 0.00 in0.0 mm 0.00 in0.0 mm 0.00 in0.0 mm
07:36 AM 76.2°F24.6°C 64.0°F17.8°C 52% 4.0 mph SE6.4 kmh SE 4.0 mph6.4 kmh 30.18 in1022.0 mb 0.00 in0.0 mm 0.00 in0.0 mm 0.00 in0.0 mm
07:42 AM 75.9°F24.4°C 65.0°F18.3°C 55% 2.8 mph NNW4.5 kmh NNW 2.8 mph4.5 kmh 30.19 in1022.4 mb 0.00 in0.0 mm 0.00 in0.0 mm 0.00 in0.0 mm
07:45 AM 75.8°F24.3°C 64.0°F17.8°C 53% 2.4 mph SE3.9 kmh SE 2.4 mph3.9 kmh 30.18 in1022.0 mb 0.00 in0.0 mm 0.00 in0.0 mm 0.00 in0.0 mm
07:48 AM 75.9°F24.4°C 63.8°F17.7°C 53% 4.4 mph SE7.1 kmh SE 4.5 mph7.2 kmh 30.19 in1022.4 mb 0.00 in0.0 mm 0.00 in0.0 mm 0.00 in0.0 mm
07:51 AM 75.5°F24.2°C 64.6°F18.1°C 55% 2.4 mph SE3.9 kmh SE 2.4 mph3.9 kmh 30.19 in1022.4 mb 0.00 in0.0 mm 0.00 in0.0 mm 0.00 in0.0 mm
07:54 AM 75.7°F24.3°C 65.3°F18.5°C 56% 2.0 mph SE3.2 kmh SE 2.0 mph3.2 kmh 30.18 in1022.0 mb 0.00 in0.0 mm 0.00 in0.0 mm 0.00 in0.0 mm
07:57 AM 75.2°F24.0°C 64.0°F17.8°C 53% 3.6 mph NNW5.8 kmh NNW 3.6 mph5.8 kmh 30.18 in1022.0 mb 0.00 in0.0 mm 0.00 in0.0 mm 0.00 in0.0 mm
08:00 AM 75.1°F23.9°C 64.4°F18.0°C 54% 3.6 mph SE5.8 kmh SE 3.6 mph5.8 kmh 30.18 in1022.0 mb 0.00 in0.0 mm 0.00 in0.0 mm 0.00 in0.0 mm
08:03 AM 75.0°F23.9°C 63.7°F17.6°C 54% 1.2 mph NNW1.9 kmh NNW 1.2 mph1.9 kmh 30.18 in1022.0 mb 0.00 in0.0 mm 0.00 in0.0 mm 0.00 in0.0 mm
08:06 AM 75.0°F23.9°C 63.4°F17.4°C 54% 2.3 mph SE3.7 kmh SE 2.3 mph3.7 kmh 30.18 in1022.0 mb 0.00 in0.0 mm 0.00 in0.0 mm 0.00 in0.0 mm
08:09 AM 74.9°F23.8°C 63.2°F17.3°C 54% 1.2 mph NNW1.9 kmh NNW 1.2 mph1.9 kmh 30.19 in1022.4 mb 0.00 in0.0 mm 0.00 in0.0 mm 0.00 in0.0 mm
08:12 AM 75.1°F23.9°C 64.5°F18.1°C 56% 3.2 mph E5.1 kmh E 3.2 mph5.1 kmh 30.18 in1022.0 mb 0.00 in0.0 mm 0.00 in0.0 mm 0.00 in0.0 mm
08:15 AM 74.9°F23.8°C 63.6°F17.6°C 55% 3.6 mph NNW5.8 kmh NNW 3.7 mph6.0 kmh 30.19 in1022.4 mb 0.00 in0.0 mm 0.00 in0.0 mm 0.00 in0.0 mm
08:18 AM 74.8°F23.8°C 63.1°F17.3°C 53% 1.1 mph SSE1.8 kmh SSE 1.1 mph1.8 kmh 30.18 in1022.0 mb 0.00 in0.0 mm 0.00 in0.0 mm 0.00 in0.0 mm
08:21 AM 75.0°F23.9°C 64.8°F18.2°C 56% 6.0 mph ESE9.7 kmh ESE 6.0 mph9.7 kmh 30.18 in1022.0 mb 0.00 in0.0 mm 0.00 in0.0 mm 0.00 in0.0 mm
08:24 AM 75.1°F23.9°C 63.5°F17.5°C 55% 2.4 mph SSE3.9 kmh SSE 2.4 mph3.9 kmh 30.18 in1022.0 mb 0.00 in0.0 mm 0.00 in0.0 mm 0.00 in0.0 mm
08:27 AM 74.8°F23.8°C 62.8°F17.1°C 54% 3.2 mph SSE5.1 kmh SSE 3.3 mph5.3 kmh 30.18 in1022.0 mb 0.00 in0.0 mm 0.00 in0.0 mm 0.00 in0.0 mm
08:30 AM 74.8°F23.8°C 63.3°F17.4°C 54% 1.6 mph SSE2.6 kmh SSE 1.6 mph2.6 kmh 30.18 in1022.0 mb 0.00 in0.0 mm 0.00 in0.0 mm 0.00 in0.0 mm
08:33 AM 75.1°F23.9°C 63.1°F17.3°C 54% 2.4 mph NNW3.9 kmh NNW 2.4 mph3.9 kmh 30.18 in1022.0 mb 0.00 in0.0 mm 0.00 in0.0 mm 0.00 in0.0 mm
08:36 AM 74.8°F23.8°C 63.0°F17.2°C 53% 2.4 mph SSE3.9 kmh SSE 2.4 mph3.9 kmh 30.18 in1022.0 mb 0.00 in0.0 mm 0.00 in0.0 mm 0.00 in0.0 mm
08:39 AM 74.9°F23.8°C 62.6°F17.0°C 53% 2.0 mph SE3.2 kmh SE 2.0 mph3.2 kmh 30.18 in1022.0 mb 0.00 in0.0 mm 0.00 in0.0 mm 0.00 in0.0 mm
08:42 AM 75.2°F24.0°C 63.9°F17.7°C 55% 3.6 mph SE5.8 kmh SE 3.7 mph6.0 kmh 30.18 in1022.0 mb 0.00 in0.0 mm 0.00 in0.0 mm 0.00 in0.0 mm
08:45 AM 75.2°F24.0°C 63.6°F17.6°C 55% 2.8 mph SE4.5 kmh SE 2.9 mph4.7 kmh 30.18 in1022.0 mb 0.00 in0.0 mm 0.00 in0.0 mm 0.00 in0.0 mm
08:48 AM 75.1°F23.9°C 61.9°F16.6°C 53% 4.8 mph NNW7.7 kmh NNW 4.8 mph7.7 kmh 30.18 in1022.0 mb 0.00 in0.0 mm 0.00 in0.0 mm 0.00 in0.0 mm
08:51 AM 75.3°F24.1°C 62.8°F17.1°C 53% 2.4 mph NNW3.9 kmh NNW 2.4 mph3.9 kmh 30.18 in1022.0 mb 0.00 in0.0 mm 0.00 in0.0 mm 0.00 in0.0 mm
08:54 AM 75.4°F24.1°C 62.9°F17.2°C 53% 4.0 mph SE6.4 kmh SE 4.1 mph6.6 kmh 30.18 in1022.0 mb 0.00 in0.0 mm 0.00 in0.0 mm 0.00 in0.0 mm
08:57 AM 75.7°F24.3°C 64.1°F17.8°C 55% 4.4 mph SE7.1 kmh SE 4.4 mph7.1 kmh 30.18 in1022.0 mb 0.00 in0.0 mm 0.00 in0.0 mm 0.00 in0.0 mm
09:00 AM 75.7°F24.3°C 63.9°F17.7°C 55% 3.8 mph SE6.1 kmh SE 3.9 mph6.3 kmh 30.18 in1022.0 mb 0.00 in0.0 mm 0.00 in0.0 mm 0.00 in0.0 mm
09:03 AM 75.4°F24.1°C 62.2°F16.8°C 53% 2.8 mph SE4.5 kmh SE 2.8 mph4.5 kmh 30.18 in1022.0 mb 0.00 in0.0 mm 0.00 in0.0 mm 0.00 in0.0 mm
09:06 AM 75.5°F24.2°C 62.7°F17.1°C 53% 2.8 mph SE4.5 kmh SE 2.9 mph4.7 kmh 30.18 in1022.0 mb 0.00 in0.0 mm 0.00 in0.0 mm 0.00 in0.0 mm
09:09 AM 75.9°F24.4°C 62.4°F16.9°C 52% 2.4 mph SE3.9 kmh SE 2.4 mph3.9 kmh 30.18 in1022.0 mb 0.00 in0.0 mm 0.00 in0.0 mm 0.00 in0.0 mm
09:12 AM 75.7°F24.3°C 63.1°F17.3°C 53% 5.7 mph NNW9.2 kmh NNW 5.7 mph9.2 kmh 30.18 in1022.0 mb 0.00 in0.0 mm 0.00 in0.0 mm 0.00 in0.0 mm
09:15 AM 75.8°F24.3°C 63.0°F17.2°C 53% 5.2 mph NNW8.4 kmh NNW 5.3 mph8.5 kmh 30.18 in1022.0 mb 0.00 in0.0 mm 0.00 in0.0 mm 0.00 in0.0 mm
09:18 AM 75.8°F24.3°C 63.2°F17.3°C 54% 4.8 mph ESE7.7 kmh ESE 4.9 mph7.9 kmh 30.17 in1021.7 mb 0.00 in0.0 mm 0.00 in0.0 mm 0.00 in0.0 mm
09:21 AM 75.7°F24.3°C 63.5°F17.5°C 55% 3.6 mph ESE5.8 kmh ESE 3.7 mph6.0 kmh 30.18 in1022.0 mb 0.00 in0.0 mm 0.00 in0.0 mm 0.00 in0.0 mm
09:24 AM 75.9°F24.4°C 63.6°F17.6°C 55% 4.0 mph SE6.4 kmh SE 4.1 mph6.6 kmh 30.17 in1021.7 mb 0.00 in0.0 mm 0.00 in0.0 mm 0.00 in0.0 mm
09:27 AM 76.4°F24.7°C 63.5°F17.5°C 54% 5.6 mph SE9.0 kmh SE 5.7 mph9.2 kmh 30.17 in1021.7 mb 0.00 in0.0 mm 0.00 in0.0 mm 0.00 in0.0 mm
09:30 AM 76.7°F24.8°C 63.7°F17.6°C 55% 7.1 mph ESE11.4 kmh ESE 7.1 mph11.4 kmh 30.17 in1021.7 mb 0.00 in0.0 mm 0.00 in0.0 mm 0.00 in0.0 mm
09:33 AM 76.9°F24.9°C 64.5°F18.1°C 55% 4.2 mph ESE6.8 kmh ESE 4.2 mph6.8 kmh 30.17 in1021.7 mb 0.00 in0.0 mm 0.00 in0.0 mm 0.00 in0.0 mm
09:36 AM 77.0°F25.0°C 63.1°F17.3°C 53% 4.8 mph ESE7.7 kmh ESE 4.8 mph7.7 kmh 30.16 in1021.3 mb 0.00 in0.0 mm 0.00 in0.0 mm 0.00 in0.0 mm
09:39 AM 77.1°F25.1°C 63.2°F17.3°C 53% 3.2 mph NNW5.1 kmh NNW 3.2 mph5.1 kmh 30.17 in1021.7 mb 0.00 in0.0 mm 0.00 in0.0 mm 0.00 in0.0 mm
09:42 AM 77.8°F25.4°C 64.3°F17.9°C 54% 5.7 mph SE9.2 kmh SE 5.7 mph9.2 kmh 30.17 in1021.7 mb 0.00 in0.0 mm 0.00 in0.0 mm 0.00 in0.0 mm
09:45 AM 77.7°F25.4°C 62.9°F17.2°C 52% 3.6 mph NNW5.8 kmh NNW 3.7 mph6.0 kmh 30.16 in1021.3 mb 0.00 in0.0 mm 0.00 in0.0 mm 0.00 in0.0 mm
09:48 AM 78.0°F25.6°C 64.2°F17.9°C 53% 4.1 mph ESE6.6 kmh ESE 4.1 mph6.6 kmh 30.17 in1021.7 mb 0.00 in0.0 mm 0.00 in0.0 mm 0.00 in0.0 mm
09:51 AM 78.7°F25.9°C 64.6°F18.1°C 54% 4.4 mph NNW7.1 kmh NNW 4.5 mph7.2 kmh 30.16 in1021.3 mb 0.00 in0.0 mm 0.00 in0.0 mm 0.00 in0.0 mm
09:54 AM 78.7°F25.9°C 63.8°F17.7°C 52% 3.2 mph SE5.1 kmh SE 3.2 mph5.1 kmh 30.17 in1021.7 mb 0.00 in0.0 mm 0.00 in0.0 mm 0.00 in0.0 mm
10:00 AM 78.6°F25.9°C 64.6°F18.1°C 52% 3.2 mph SE5.1 kmh SE 3.2 mph5.1 kmh 30.17 in1021.7 mb 0.00 in0.0 mm 0.00 in0.0 mm 0.00 in0.0 mm
10:03 AM 78.6°F25.9°C 63.1°F17.3°C 50% 3.6 mph NNW5.8 kmh NNW 3.7 mph6.0 kmh 30.16 in1021.3 mb 0.00 in0.0 mm 0.00 in0.0 mm 0.00 in0.0 mm
10:06 AM 78.4°F25.8°C 62.7°F17.1°C 49% 2.0 mph SSE3.2 kmh SSE 2.0 mph3.2 kmh 30.16 in1021.3 mb 0.00 in0.0 mm 0.00 in0.0 mm 0.00 in0.0 mm
10:09 AM 79.3°F26.3°C 63.7°F17.6°C 50% 1.6 mph SE2.6 kmh SE 1.6 mph2.6 kmh 30.16 in1021.3 mb 0.00 in0.0 mm 0.00 in0.0 mm 0.00 in0.0 mm
10:12 AM 79.5°F26.4°C 65.3°F18.5°C 52% 3.2 mph SE5.1 kmh SE 3.3 mph5.3 kmh 30.16 in1021.3 mb 0.00 in0.0 mm 0.00 in0.0 mm 0.00 in0.0 mm
10:15 AM 78.9°F26.1°C 64.4°F18.0°C 50% 5.6 mph SE9.0 kmh SE 5.7 mph9.2 kmh 30.16 in1021.3 mb 0.00 in0.0 mm 0.00 in0.0 mm 0.00 in0.0 mm
10:18 AM 78.9°F26.1°C 63.6°F17.6°C 49% 4.8 mph SE7.7 kmh SE 4.9 mph7.9 kmh 30.16 in1021.3 mb 0.00 in0.0 mm 0.00 in0.0 mm 0.00 in0.0 mm
10:21 AM 78.7°F25.9°C 64.3°F17.9°C 50% 4.9 mph SE7.9 kmh SE 4.9 mph7.9 kmh 30.16 in1021.3 mb 0.00 in0.0 mm 0.00 in0.0 mm 0.00 in0.0 mm
10:24 AM 79.3°F26.3°C 65.2°F18.4°C 50% 2.4 mph NNW3.9 kmh NNW 2.4 mph3.9 kmh 30.16 in1021.3 mb 0.00 in0.0 mm 0.00 in0.0 mm 0.00 in0.0 mm
10:27 AM 78.9°F26.1°C 63.7°F17.6°C 48% 0.8 mph NNW1.3 kmh NNW 0.8 mph1.3 kmh 30.16 in1021.3 mb 0.00 in0.0 mm 0.00 in0.0 mm 0.00 in0.0 mm
10:30 AM 79.3°F26.3°C 64.1°F17.8°C 48% 4.4 mph NNW7.1 kmh NNW 4.5 mph7.2 kmh 30.16 in1021.3 mb 0.00 in0.0 mm 0.00 in0.0 mm 0.00 in0.0 mm
10:33 AM 79.4°F26.3°C 64.7°F18.2°C 47% 4.8 mph SE7.7 kmh SE 4.8 mph7.7 kmh 30.16 in1021.3 mb 0.00 in0.0 mm 0.00 in0.0 mm 0.00 in0.0 mm
10:36 AM 79.8°F26.6°C 65.4°F18.6°C 48% 2.4 mph NNW3.9 kmh NNW 2.4 mph3.9 kmh 30.16 in1021.3 mb 0.00 in0.0 mm 0.00 in0.0 mm 0.00 in0.0 mm
10:39 AM 79.9°F26.6°C 63.5°F17.5°C 46% 2.8 mph S4.5 kmh S 2.8 mph4.5 kmh 30.16 in1021.3 mb 0.00 in0.0 mm 0.00 in0.0 mm 0.00 in0.0 mm
10:42 AM 79.8°F26.6°C 63.7°F17.6°C 46% 6.2 mph SE10.0 kmh SE 6.2 mph10.0 kmh 30.16 in1021.3 mb 0.00 in0.0 mm 0.00 in0.0 mm 0.00 in0.0 mm
10:45 AM 79.7°F26.5°C 63.6°F17.6°C 46% 2.4 mph SSE3.9 kmh SSE 2.4 mph3.9 kmh 30.16 in1021.3 mb 0.00 in0.0 mm 0.00 in0.0 mm 0.00 in0.0 mm
10:48 AM 79.7°F26.5°C 64.3°F17.9°C 46% 2.0 mph SE3.2 kmh SE 2.0 mph3.2 kmh 30.16 in1021.3 mb 0.00 in0.0 mm 0.00 in0.0 mm 0.00 in0.0 mm
10:51 AM 80.5°F26.9°C 66.1°F18.9°C 47% 0.8 mph SE1.3 kmh SE 0.8 mph1.3 kmh 30.16 in1021.3 mb 0.00 in0.0 mm 0.00 in0.0 mm 0.00 in0.0 mm
10:54 AM 80.4°F26.9°C 65.1°F18.4°C 46% 2.3 mph NNW3.7 kmh NNW 2.4 mph3.9 kmh 30.16 in1021.3 mb 0.00 in0.0 mm 0.00 in0.0 mm 0.00 in0.0 mm
10:57 AM 80.3°F26.8°C 65.9°F18.8°C 46% 4.9 mph SE7.9 kmh SE 4.9 mph7.9 kmh 30.16 in1021.3 mb 0.00 in0.0 mm 0.00 in0.0 mm 0.00 in0.0 mm
11:00 AM 79.7°F26.5°C 64.9°F18.3°C 44% 3.6 mph SE5.8 kmh SE 3.7 mph6.0 kmh 30.16 in1021.3 mb 0.00 in0.0 mm 0.00 in0.0 mm 0.00 in0.0 mm
11:03 AM 80.0°F26.7°C 63.6°F17.6°C 45% 2.8 mph SE4.5 kmh SE 2.9 mph4.7 kmh 30.16 in1021.3 mb 0.00 in0.0 mm 0.00 in0.0 mm 0.00 in0.0 mm
11:06 AM 80.4°F26.9°C 65.3°F18.5°C 45% 1.6 mph NNW2.6 kmh NNW 1.6 mph2.6 kmh 30.16 in1021.3 mb 0.00 in0.0 mm 0.00 in0.0 mm 0.00 in0.0 mm
11:09 AM 80.3°F26.8°C 64.7°F18.2°C 44% 2.7 mph SW4.3 kmh SW 2.7 mph4.3 kmh 30.16 in1021.3 mb 0.00 in0.0 mm 0.00 in0.0 mm 0.00 in0.0 mm
11:12 AM 80.0°F26.7°C 64.5°F18.1°C 44% 2.4 mph S3.9 kmh S 2.4 mph3.9 kmh 30.16 in1021.3 mb 0.00 in0.0 mm 0.00 in0.0 mm 0.00 in0.0 mm
11:15 AM 80.4°F26.9°C 65.6°F18.7°C 46% 4.8 mph SE7.7 kmh SE 4.8 mph7.7 kmh 30.16 in1021.3 mb 0.00 in0.0 mm 0.00 in0.0 mm 0.00 in0.0 mm
11:18 AM 80.6°F27.0°C 65.3°F18.5°C 45% 3.8 mph SE6.1 kmh SE 3.8 mph6.1 kmh 30.16 in1021.3 mb 0.00 in0.0 mm 0.00 in0.0 mm 0.00 in0.0 mm
11:21 AM 80.8°F27.1°C 65.3°F18.5°C 44% 1.9 mph E3.1 kmh E 1.9 mph3.1 kmh 30.16 in1021.3 mb 0.00 in0.0 mm 0.00 in0.0 mm 0.00 in0.0 mm
11:24 AM 80.8°F27.1°C 65.8°F18.8°C 44% 4.8 mph ESE7.7 kmh ESE 4.9 mph7.9 kmh 30.16 in1021.3 mb 0.00 in0.0 mm 0.00 in0.0 mm 0.00 in0.0 mm
11:27 AM 80.8°F27.1°C 65.8°F18.8°C 45% 6.4 mph ESE10.3 kmh ESE 6.4 mph10.3 kmh 30.16 in1021.3 mb 0.00 in0.0 mm 0.00 in0.0 mm 0.00 in0.0 mm
11:30 AM 80.8°F27.1°C 64.7°F18.2°C 42% 3.6 mph SE5.8 kmh SE 3.6 mph5.8 kmh 30.16 in1021.3 mb 0.00 in0.0 mm 0.00 in0.0 mm 0.00 in0.0 mm
11:33 AM 80.8°F27.1°C 64.9°F18.3°C 43% 5.3 mph SE8.5 kmh SE 5.3 mph8.5 kmh 30.16 in1021.3 mb 0.00 in0.0 mm 0.00 in0.0 mm 0.00 in0.0 mm
11:36 AM 81.1°F27.3°C 65.8°F18.8°C 43% 4.0 mph SE6.4 kmh SE 4.0 mph6.4 kmh 30.16 in1021.3 mb 0.00 in0.0 mm 0.00 in0.0 mm 0.00 in0.0 mm
11:39 AM 81.4°F27.4°C 67.1°F19.5°C 45% 2.8 mph NNW4.5 kmh NNW 2.8 mph4.5 kmh 30.16 in1021.3 mb 0.00 in0.0 mm 0.00 in0.0 mm 0.00 in0.0 mm
11:42 AM 80.4°F26.9°C 64.7°F18.2°C 42% 4.0 mph SSE6.4 kmh SSE 4.1 mph6.6 kmh 30.16 in1021.3 mb 0.00 in0.0 mm 0.00 in0.0 mm 0.00 in0.0 mm
11:48 AM 81.2°F27.3°C 66.1°F18.9°C 45% 3.4 mph NNW5.5 kmh NNW 3.7 mph6.0 kmh 30.16 in1021.3 mb 0.00 in0.0 mm 0.00 in0.0 mm 0.00 in0.0 mm
11:51 AM 81.3°F27.4°C 66.0°F18.9°C 44% 4.6 mph NNW7.4 kmh NNW 4.7 mph7.6 kmh 30.16 in1021.3 mb 0.00 in0.0 mm 0.00 in0.0 mm 0.00 in0.0 mm
11:54 AM 81.6°F27.6°C 66.3°F19.1°C 43% 1.9 mph SE3.1 kmh SE 1.9 mph3.1 kmh 30.16 in1021.3 mb 0.00 in0.0 mm 0.00 in0.0 mm 0.00 in0.0 mm
11:57 AM 81.5°F27.5°C 66.2°F19.0°C 42% 3.8 mph NNW6.1 kmh NNW 4.1 mph6.6 kmh 30.16 in1021.3 mb 0.00 in0.0 mm 0.00 in0.0 mm 0.00 in0.0 mm
12:00 PM 82.1°F27.8°C 67.9°F19.9°C 44% 1.1 mph NNW1.8 kmh NNW 1.2 mph1.9 kmh 30.16 in1021.3 mb 0.00 in0.0 mm 0.00 in0.0 mm 0.00 in0.0 mm
12:03 PM 82.0°F27.8°C 67.3°F19.6°C 42% 0.4 mph NNW0.6 kmh NNW 0.4 mph0.6 kmh 30.15 in1021.0 mb 0.00 in0.0 mm 0.00 in0.0 mm 0.00 in0.0 mm
12:06 PM 82.1°F27.8°C 66.8°F19.3°C 42% 4.4 mph NNW7.1 kmh NNW 4.4 mph7.1 kmh 30.16 in1021.3 mb 0.00 in0.0 mm 0.00 in0.0 mm 0.00 in0.0 mm
12:09 PM 82.1°F27.8°C 65.8°F18.8°C 41% 3.8 mph ESE6.1 kmh ESE 3.8 mph6.1 kmh 30.16 in1021.3 mb 0.00 in0.0 mm 0.00 in0.0 mm 0.00 in0.0 mm
12:12 PM 82.3°F27.9°C 65.5°F18.6°C 40% 3.4 mph NNW5.5 kmh NNW 3.5 mph5.6 kmh 30.15 in1021.0 mb 0.00 in0.0 mm 0.00 in0.0 mm 0.00 in0.0 mm
12:15 PM 82.4°F28.0°C 66.4°F19.1°C 41% 0.8 mph NNW1.3 kmh NNW 0.8 mph1.3 kmh 30.16 in1021.3 mb 0.00 in0.0 mm 0.00 in0.0 mm 0.00 in0.0 mm
12:18 PM 82.4°F28.0°C 66.3°F19.1°C 41% 9.2 mph ESE14.8 kmh ESE 9.2 mph14.8 kmh 30.15 in1021.0 mb 0.00 in0.0 mm 0.00 in0.0 mm 0.00 in0.0 mm
12:21 PM 82.4°F28.0°C 67.2°F19.6°C 43% 2.7 mph SE4.3 kmh SE 2.9 mph4.7 kmh 30.15 in1021.0 mb 0.00 in0.0 mm 0.00 in0.0 mm 0.00 in0.0 mm
12:24 PM 82.5°F28.1°C 66.7°F19.3°C 42% 1.2 mph NNW1.9 kmh NNW 1.2 mph1.9 kmh 30.15 in1021.0 mb 0.00 in0.0 mm 0.00 in0.0 mm 0.00 in0.0 mm
12:27 PM 82.2°F27.9°C 67.8°F19.9°C 42% 2.4 mph NNW3.9 kmh NNW 2.4 mph3.9 kmh 30.15 in1021.0 mb 0.00 in0.0 mm 0.00 in0.0 mm 0.00 in0.0 mm
12:30 PM 82.6°F28.1°C 67.2°F19.6°C 41% 3.6 mph SE5.8 kmh SE 3.6 mph5.8 kmh 30.15 in1021.0 mb 0.00 in0.0 mm 0.00 in0.0 mm 0.00 in0.0 mm
12:33 PM 82.9°F28.3°C 66.6°F19.2°C 40% 4.8 mph SE7.7 kmh SE 4.8 mph7.7 kmh 30.15 in1021.0 mb 0.00 in0.0 mm 0.00 in0.0 mm 0.00 in0.0 mm
12:36 PM 81.4°F27.4°C 65.3°F18.5°C 39% Calm Calm -- 30.15 in1021.0 mb 0.00 in0.0 mm 0.00 in0.0 mm 0.00 in0.0 mm
12:39 PM 82.1°F27.8°C 64.7°F18.2°C 38% 1.6 mph NNW2.6 kmh NNW 1.6 mph2.6 kmh 30.15 in1021.0 mb 0.00 in0.0 mm 0.00 in0.0 mm 0.00 in0.0 mm
12:42 PM 82.3°F27.9°C 66.8°F19.3°C 41% 2.4 mph NNW3.9 kmh NNW 2.4 mph3.9 kmh 30.15 in1021.0 mb 0.00 in0.0 mm 0.00 in0.0 mm 0.00 in0.0 mm
12:45 PM 82.2°F27.9°C 67.1°F19.5°C 41% 2.0 mph SE3.2 kmh SE 2.0 mph3.2 kmh 30.15 in1021.0 mb 0.00 in0.0 mm 0.00 in0.0 mm 0.00 in0.0 mm
12:48 PM 82.9°F28.3°C 66.8°F19.3°C 41% 3.2 mph ESE5.1 kmh ESE 3.2 mph5.1 kmh 30.15 in1021.0 mb 0.00 in0.0 mm 0.00 in0.0 mm 0.00 in0.0 mm
12:51 PM 83.3°F28.5°C 66.6°F19.2°C 41% 2.4 mph ESE3.9 kmh ESE 2.4 mph3.9 kmh 30.15 in1021.0 mb 0.00 in0.0 mm 0.00 in0.0 mm 0.00 in0.0 mm
12:54 PM 83.5°F28.6°C 66.6°F19.2°C 40% Calm Calm -- 30.15 in1021.0 mb 0.00 in0.0 mm 0.00 in0.0 mm 0.00 in0.0 mm
12:57 PM 83.6°F28.7°C 68.5°F20.3°C 41% 1.2 mph SE1.9 kmh SE 1.2 mph1.9 kmh 30.15 in1021.0 mb 0.00 in0.0 mm 0.00 in0.0 mm 0.00 in0.0 mm
01:00 PM 83.1°F28.4°C 66.9°F19.4°C 40% 2.3 mph S3.7 kmh S 2.3 mph3.7 kmh 30.15 in1021.0 mb 0.00 in0.0 mm 0.00 in0.0 mm 0.00 in0.0 mm
01:03 PM 83.6°F28.7°C 66.3°F19.1°C 39% 1.6 mph SSE2.6 kmh SSE 1.6 mph2.6 kmh 30.15 in1021.0 mb 0.00 in0.0 mm 0.00 in0.0 mm 0.00 in0.0 mm
01:06 PM 83.0°F28.3°C 67.0°F19.4°C 40% 3.2 mph SSW5.1 kmh SSW 3.2 mph5.1 kmh 30.15 in1021.0 mb 0.00 in0.0 mm 0.00 in0.0 mm 0.00 in0.0 mm
01:12 PM 85.1°F29.5°C 69.3°F20.7°C 43% 4.0 mph WSW6.4 kmh WSW 4.1 mph6.6 kmh 30.15 in1021.0 mb 0.00 in0.0 mm 0.00 in0.0 mm 0.00 in0.0 mm
01:15 PM 84.8°F29.3°C 70.9°F21.6°C 43% 2.4 mph SSW3.9 kmh SSW 2.4 mph3.9 kmh 30.15 in1021.0 mb 0.00 in0.0 mm 0.00 in0.0 mm 0.00 in0.0 mm
01:18 PM 85.3°F29.6°C 68.5°F20.3°C 40% 1.9 mph NNW3.1 kmh NNW 1.9 mph3.1 kmh 30.15 in1021.0 mb 0.00 in0.0 mm 0.00 in0.0 mm 0.00 in0.0 mm
01:21 PM 84.7°F29.3°C 67.3°F19.6°C 37% 4.0 mph NE6.4 kmh NE 4.1 mph6.6 kmh 30.15 in1021.0 mb 0.00 in0.0 mm 0.00 in0.0 mm 0.00 in0.0 mm
01:24 PM 85.0°F29.4°C 69.0°F20.6°C 39% Calm Calm -- 30.15 in1021.0 mb 0.00 in0.0 mm 0.00 in0.0 mm 0.00 in0.0 mm
01:27 PM 84.7°F29.3°C 68.5°F20.3°C 38% 2.0 mph NW3.2 kmh NW 2.0 mph3.2 kmh 30.15 in1021.0 mb 0.00 in0.0 mm 0.00 in0.0 mm 0.00 in0.0 mm
01:30 PM 85.0°F29.4°C 68.2°F20.1°C 37% 4.5 mph WSW7.2 kmh WSW 4.5 mph7.2 kmh 30.15 in1021.0 mb 0.00 in0.0 mm 0.00 in0.0 mm 0.00 in0.0 mm
01:33 PM 85.2°F29.6°C 67.8°F19.9°C 37% 3.6 mph SE5.8 kmh SE 3.7 mph6.0 kmh 30.15 in1021.0 mb 0.00 in0.0 mm 0.00 in0.0 mm 0.00 in0.0 mm
01:36 PM 84.8°F29.3°C 67.4°F19.7°C 37% 4.4 mph ESE7.1 kmh ESE 4.4 mph7.1 kmh 30.15 in1021.0 mb 0.00 in0.0 mm 0.00 in0.0 mm 0.00 in0.0 mm
01:39 PM 84.9°F29.4°C 66.8°F19.3°C 37% 0.8 mph NNW1.3 kmh NNW 0.8 mph1.3 kmh 30.15 in1021.0 mb 0.00 in0.0 mm 0.00 in0.0 mm 0.00 in0.0 mm
01:42 PM 84.9°F29.4°C 67.2°F19.6°C 38% 2.8 mph SSE4.5 kmh SSE 2.9 mph4.7 kmh 30.15 in1021.0 mb 0.00 in0.0 mm 0.00 in0.0 mm 0.00 in0.0 mm
01:45 PM 85.0°F29.4°C 68.2°F20.1°C 40% 2.0 mph S3.2 kmh S 2.0 mph3.2 kmh 30.15 in1021.0 mb 0.00 in0.0 mm 0.00 in0.0 mm 0.00 in0.0 mm
01:48 PM 84.4°F29.1°C 65.3°F18.5°C 36% 1.2 mph NNW1.9 kmh NNW 1.2 mph1.9 kmh 30.14 in1020.7 mb 0.00 in0.0 mm 0.00 in0.0 mm 0.00 in0.0 mm
01:51 PM 84.7°F29.3°C 66.9°F19.4°C 38% 2.8 mph S4.5 kmh S 2.9 mph4.7 kmh 30.14 in1020.7 mb 0.00 in0.0 mm 0.00 in0.0 mm 0.00 in0.0 mm
01:54 PM 85.0°F29.4°C 65.7°F18.7°C 37% 2.0 mph NNW3.2 kmh NNW 2.0 mph3.2 kmh 30.15 in1021.0 mb 0.00 in0.0 mm 0.00 in0.0 mm 0.00 in0.0 mm
01:57 PM 85.2°F29.6°C 65.6°F18.7°C 36% 0.4 mph SSE0.6 kmh SSE 0.4 mph0.6 kmh 30.15 in1021.0 mb 0.00 in0.0 mm 0.00 in0.0 mm 0.00 in0.0 mm
02:00 PM 86.0°F30.0°C 67.3°F19.6°C 38% 4.4 mph WSW7.1 kmh WSW 4.5 mph7.2 kmh 30.15 in1021.0 mb 0.00 in0.0 mm 0.00 in0.0 mm 0.00 in0.0 mm
02:03 PM 85.7°F29.8°C 66.8°F19.3°C 37% 1.2 mph S1.9 kmh S 1.2 mph1.9 kmh 30.14 in1020.7 mb 0.00 in0.0 mm 0.00 in0.0 mm 0.00 in0.0 mm
02:06 PM 85.3°F29.6°C 66.9°F19.4°C 36% 2.4 mph SE3.9 kmh SE 2.4 mph3.9 kmh 30.15 in1021.0 mb 0.00 in0.0 mm 0.00 in0.0 mm 0.00 in0.0 mm
02:12 PM 85.3°F29.6°C 65.8°F18.8°C 36% 3.2 mph S5.1 kmh S 3.2 mph5.1 kmh 30.15 in1021.0 mb 0.00 in0.0 mm 0.00 in0.0 mm 0.00 in0.0 mm
02:15 PM 85.2°F29.6°C 68.2°F20.1°C 39% 2.8 mph SW4.5 kmh SW 2.8 mph4.5 kmh 30.14 in1020.7 mb 0.00 in0.0 mm 0.00 in0.0 mm 0.00 in0.0 mm
02:18 PM 85.8°F29.9°C 66.6°F19.2°C 37% 3.2 mph SSW5.1 kmh SSW 3.2 mph5.1 kmh 30.15 in1021.0 mb 0.00 in0.0 mm 0.00 in0.0 mm 0.00 in0.0 mm
02:21 PM 86.1°F30.1°C 66.5°F19.2°C 37% 4.8 mph SW7.7 kmh SW 4.8 mph7.7 kmh 30.15 in1021.0 mb 0.00 in0.0 mm 0.00 in0.0 mm 0.00 in0.0 mm
02:27 PM 85.6°F29.8°C 65.3°F18.5°C 35% 2.0 mph SSW3.2 kmh SSW 2.0 mph3.2 kmh 30.14 in1020.7 mb 0.00 in0.0 mm 0.00 in0.0 mm 0.00 in0.0 mm
02:30 PM 86.0°F30.0°C 67.1°F19.5°C 38% 2.0 mph SE3.2 kmh SE 2.0 mph3.2 kmh 30.15 in1021.0 mb 0.00 in0.0 mm 0.00 in0.0 mm 0.00 in0.0 mm
02:33 PM 86.1°F30.1°C 66.2°F19.0°C 36% 1.2 mph WSW1.9 kmh WSW 1.2 mph1.9 kmh 30.14 in1020.7 mb 0.00 in0.0 mm 0.00 in0.0 mm 0.00 in0.0 mm
02:36 PM 85.8°F29.9°C 67.1°F19.5°C 37% 4.0 mph WSW6.4 kmh WSW 4.0 mph6.4 kmh 30.14 in1020.7 mb 0.00 in0.0 mm 0.00 in0.0 mm 0.00 in0.0 mm
02:39 PM 85.7°F29.8°C 67.9°F19.9°C 38% 5.2 mph NNW8.4 kmh NNW 5.3 mph8.5 kmh 30.14 in1020.7 mb 0.00 in0.0 mm 0.00 in0.0 mm 0.00 in0.0 mm
02:42 PM 86.1°F30.1°C 65.9°F18.8°C 36% 0.8 mph S1.3 kmh S 0.8 mph1.3 kmh 30.14 in1020.7 mb 0.00 in0.0 mm 0.00 in0.0 mm 0.00 in0.0 mm
02:45 PM 86.1°F30.1°C 66.9°F19.4°C 36% 3.2 mph NNW5.1 kmh NNW 3.3 mph5.3 kmh 30.15 in1021.0 mb 0.00 in0.0 mm 0.00 in0.0 mm 0.00 in0.0 mm
02:48 PM 85.4°F29.7°C 67.2°F19.6°C 37% 2.3 mph SSW3.7 kmh SSW 2.3 mph3.7 kmh 30.14 in1020.7 mb 0.00 in0.0 mm 0.00 in0.0 mm 0.00 in0.0 mm
02:51 PM 86.6°F30.3°C 66.9°F19.4°C 36% Calm Calm -- 30.14 in1020.7 mb 0.00 in0.0 mm 0.00 in0.0 mm 0.00 in0.0 mm
02:54 PM 86.0°F30.0°C 66.7°F19.3°C 36% 0.8 mph SW1.3 kmh SW 0.8 mph1.3 kmh 30.14 in1020.7 mb 0.00 in0.0 mm 0.00 in0.0 mm 0.00 in0.0 mm
02:57 PM 86.1°F30.1°C 65.8°F18.8°C 35% 2.4 mph S3.9 kmh S 2.5 mph4.0 kmh 30.14 in1020.7 mb 0.00 in0.0 mm 0.00 in0.0 mm 0.00 in0.0 mm
03:00 PM 86.2°F30.1°C 65.8°F18.8°C 35% 1.6 mph SE2.6 kmh SE 1.6 mph2.6 kmh 30.14 in1020.7 mb 0.00 in0.0 mm 0.00 in0.0 mm 0.00 in0.0 mm
03:03 PM 86.3°F30.2°C 66.4°F19.1°C 36% 1.2 mph SE1.9 kmh SE 1.2 mph1.9 kmh 30.14 in1020.7 mb 0.00 in0.0 mm 0.00 in0.0 mm 0.00 in0.0 mm
03:09 PM 86.3°F30.2°C 66.6°F19.2°C 36% 1.2 mph SSW1.9 kmh SSW 1.2 mph1.9 kmh 30.14 in1020.7 mb 0.00 in0.0 mm 0.00 in0.0 mm 0.00 in0.0 mm
03:12 PM 86.3°F30.2°C 65.5°F18.6°C 35% 2.8 mph SE4.5 kmh SE 2.9 mph4.7 kmh 30.14 in1020.7 mb 0.00 in0.0 mm 0.00 in0.0 mm 0.00 in0.0 mm
03:15 PM 86.6°F30.3°C 66.4°F19.1°C 36% 1.6 mph SSE2.6 kmh SSE 1.6 mph2.6 kmh 30.14 in1020.7 mb 0.00 in0.0 mm 0.00 in0.0 mm 0.00 in0.0 mm
03:18 PM 86.1°F30.1°C 65.6°F18.7°C 35% 1.5 mph SE2.4 kmh SE 1.5 mph2.4 kmh 30.14 in1020.7 mb 0.00 in0.0 mm 0.00 in0.0 mm 0.00 in0.0 mm
03:21 PM 86.7°F30.4°C 66.9°F19.4°C 37% 3.2 mph NNW5.1 kmh NNW 3.2 mph5.1 kmh 30.14 in1020.7 mb 0.00 in0.0 mm 0.00 in0.0 mm 0.00 in0.0 mm
03:24 PM 87.0°F30.6°C 66.5°F19.2°C 36% 3.2 mph SE5.1 kmh SE 3.2 mph5.1 kmh 30.14 in1020.7 mb 0.00 in0.0 mm 0.00 in0.0 mm 0.00 in0.0 mm
03:27 PM 87.4°F30.8°C 66.7°F19.3°C 36% Calm Calm -- 30.14 in1020.7 mb 0.00 in0.0 mm 0.00 in0.0 mm 0.00 in0.0 mm
03:30 PM 87.2°F30.7°C 66.7°F19.3°C 35% 2.0 mph S3.2 kmh S 2.0 mph3.2 kmh 30.14 in1020.7 mb 0.00 in0.0 mm 0.00 in0.0 mm 0.00 in0.0 mm
03:33 PM 86.6°F30.3°C 65.8°F18.8°C 35% 2.4 mph SSW3.9 kmh SSW 2.5 mph4.0 kmh 30.14 in1020.7 mb 0.00 in0.0 mm 0.00 in0.0 mm 0.00 in0.0 mm
03:36 PM 87.1°F30.6°C 67.1°F19.5°C 37% 3.2 mph SW5.1 kmh SW 3.2 mph5.1 kmh 30.14 in1020.7 mb 0.00 in0.0 mm 0.00 in0.0 mm 0.00 in0.0 mm
03:39 PM 87.9°F31.1°C 67.7°F19.8°C 37% 3.6 mph SW5.8 kmh SW 3.6 mph5.8 kmh 30.14 in1020.7 mb 0.00 in0.0 mm 0.00 in0.0 mm 0.00 in0.0 mm
03:42 PM 87.6°F30.9°C 66.9°F19.4°C 36% 0.4 mph NNW0.6 kmh NNW 0.4 mph0.6 kmh 30.14 in1020.7 mb 0.00 in0.0 mm 0.00 in0.0 mm 0.00 in0.0 mm
03:45 PM 86.9°F30.5°C 67.1°F19.5°C 36% 4.0 mph SW6.4 kmh SW 4.1 mph6.6 kmh 30.14 in1020.7 mb 0.00 in0.0 mm 0.00 in0.0 mm 0.00 in0.0 mm
03:48 PM 88.4°F31.3°C 66.4°F19.1°C 36% 4.8 mph SW7.7 kmh SW 4.9 mph7.9 kmh 30.14 in1020.7 mb 0.00 in0.0 mm 0.00 in0.0 mm 0.00 in0.0 mm
03:51 PM 88.0°F31.1°C 66.8°F19.3°C 36% 3.2 mph SW5.1 kmh SW 3.3 mph5.3 kmh 30.14 in1020.7 mb 0.00 in0.0 mm 0.00 in0.0 mm 0.00 in0.0 mm
03:54 PM 89.7°F32.1°C 68.5°F20.3°C 37% Calm Calm -- 30.14 in1020.7 mb 0.00 in0.0 mm 0.00 in0.0 mm 0.00 in0.0 mm
03:57 PM 91.2°F32.9°C 68.0°F20.0°C 37% 0.8 mph W1.3 kmh W 0.8 mph1.3 kmh 30.14 in1020.7 mb 0.00 in0.0 mm 0.00 in0.0 mm 0.00 in0.0 mm
04:00 PM 89.7°F32.1°C 68.1°F20.1°C 36% 3.6 mph ESE5.8 kmh ESE 3.6 mph5.8 kmh 30.14 in1020.7 mb 0.00 in0.0 mm 0.00 in0.0 mm 0.00 in0.0 mm
04:03 PM 88.5°F31.4°C 66.7°F19.3°C 36% 2.8 mph SE4.5 kmh SE 2.8 mph4.5 kmh 30.14 in1020.7 mb 0.00 in0.0 mm 0.00 in0.0 mm 0.00 in0.0 mm
04:06 PM 88.5°F31.4°C 66.5°F19.2°C 36% 1.2 mph SSE1.9 kmh SSE 1.2 mph1.9 kmh 30.14 in1020.7 mb 0.00 in0.0 mm 0.00 in0.0 mm 0.00 in0.0 mm
04:09 PM 87.6°F30.9°C 66.0°F18.9°C 36% 1.2 mph SSW1.9 kmh SSW 1.2 mph1.9 kmh 30.14 in1020.7 mb 0.00 in0.0 mm 0.00 in0.0 mm 0.00 in0.0 mm
04:12 PM 88.4°F31.3°C 66.1°F18.9°C 36% 0.4 mph S0.6 kmh S 0.4 mph0.6 kmh 30.14 in1020.7 mb 0.00 in0.0 mm 0.00 in0.0 mm 0.00 in0.0 mm
04:15 PM 88.8°F31.6°C 66.3°F19.1°C 36% 2.0 mph SE3.2 kmh SE 2.0 mph3.2 kmh 30.14 in1020.7 mb 0.00 in0.0 mm 0.00 in0.0 mm 0.00 in0.0 mm
04:18 PM 88.6°F31.4°C 66.6°F19.2°C 37% 2.0 mph SSE3.2 kmh SSE 2.0 mph3.2 kmh 30.14 in1020.7 mb 0.00 in0.0 mm 0.00 in0.0 mm 0.00 in0.0 mm
04:21 PM 88.8°F31.6°C 66.4°F19.1°C 37% 5.3 mph SE8.5 kmh SE 5.3 mph8.5 kmh 30.14 in1020.7 mb 0.00 in0.0 mm 0.00 in0.0 mm 0.00 in0.0 mm
04:24 PM 88.5°F31.4°C 66.5°F19.2°C 37% 2.8 mph SSE4.5 kmh SSE 2.8 mph4.5 kmh 30.14 in1020.7 mb 0.00 in0.0 mm 0.00 in0.0 mm 0.00 in0.0 mm
04:27 PM 88.9°F31.6°C 66.7°F19.3°C 37% 1.9 mph SE3.1 kmh SE 1.9 mph3.1 kmh 30.14 in1020.7 mb 0.00 in0.0 mm 0.00 in0.0 mm 0.00 in0.0 mm
04:30 PM 88.8°F31.6°C 66.2°F19.0°C 37% 3.2 mph SE5.1 kmh SE 3.3 mph5.3 kmh 30.14 in1020.7 mb 0.00 in0.0 mm 0.00 in0.0 mm 0.00 in0.0 mm
04:33 PM 88.5°F31.4°C 66.7°F19.3°C 37% 1.6 mph SSW2.6 kmh SSW 1.6 mph2.6 kmh 30.14 in1020.7 mb 0.00 in0.0 mm 0.00 in0.0 mm 0.00 in0.0 mm
04:36 PM 89.8°F32.1°C 67.9°F19.9°C 39% 1.9 mph SW3.1 kmh SW 2.0 mph3.2 kmh 30.14 in1020.7 mb 0.00 in0.0 mm 0.00 in0.0 mm 0.00 in0.0 mm
04:39 PM 88.6°F31.4°C 67.6°F19.8°C 38% 3.2 mph NNW5.1 kmh NNW 3.2 mph5.1 kmh 30.14 in1020.7 mb 0.00 in0.0 mm 0.00 in0.0 mm 0.00 in0.0 mm
04:45 PM 88.9°F31.6°C 66.8°F19.3°C 37% 1.6 mph SE2.6 kmh SE 1.6 mph2.6 kmh 30.14 in1020.7 mb 0.00 in0.0 mm 0.00 in0.0 mm 0.00 in0.0 mm
04:48 PM 88.6°F31.4°C 66.9°F19.4°C 37% 3.2 mph SE5.1 kmh SE 3.3 mph5.3 kmh 30.14 in1020.7 mb 0.00 in0.0 mm 0.00 in0.0 mm 0.00 in0.0 mm
04:51 PM 90.4°F32.4°C 67.2°F19.6°C 38% Calm Calm -- 30.14 in1020.7 mb 0.00 in0.0 mm 0.00 in0.0 mm 0.00 in0.0 mm
04:54 PM 89.5°F31.9°C 67.8°F19.9°C 38% 1.2 mph NNW1.9 kmh NNW 1.2 mph1.9 kmh 30.14 in1020.7 mb 0.00 in0.0 mm 0.00 in0.0 mm 0.00 in0.0 mm
04:57 PM 87.8°F31.0°C 66.5°F19.2°C 37% 1.6 mph NNW2.6 kmh NNW 1.6 mph2.6 kmh 30.14 in1020.7 mb 0.00 in0.0 mm 0.00 in0.0 mm 0.00 in0.0 mm
05:00 PM 88.6°F31.4°C 66.3°F19.1°C 37% 3.2 mph SE5.1 kmh SE 3.2 mph5.1 kmh 30.13 in1020.3 mb 0.00 in0.0 mm 0.00 in0.0 mm 0.00 in0.0 mm
05:03 PM 87.8°F31.0°C 67.8°F19.9°C 39% 1.5 mph NNW2.4 kmh NNW 1.6 mph2.6 kmh 30.13 in1020.3 mb 0.00 in0.0 mm 0.00 in0.0 mm 0.00 in0.0 mm
05:06 PM 88.0°F31.1°C 66.3°F19.1°C 37% 4.3 mph NNW6.9 kmh NNW 4.3 mph6.9 kmh 30.13 in1020.3 mb 0.00 in0.0 mm 0.00 in0.0 mm 0.00 in0.0 mm
05:09 PM 88.7°F31.5°C 65.8°F18.8°C 37% 4.5 mph SE7.2 kmh SE 4.5 mph7.2 kmh 30.13 in1020.3 mb 0.00 in0.0 mm 0.00 in0.0 mm 0.00 in0.0 mm
05:12 PM 88.8°F31.6°C 65.8°F18.8°C 37% 1.2 mph NNW1.9 kmh NNW 1.2 mph1.9 kmh 30.13 in1020.3 mb 0.00 in0.0 mm 0.00 in0.0 mm 0.00 in0.0 mm
05:15 PM 89.5°F31.9°C 65.9°F18.8°C 37% 3.4 mph NNW5.5 kmh NNW 3.6 mph5.8 kmh 30.14 in1020.7 mb 0.00 in0.0 mm 0.00 in0.0 mm 0.00 in0.0 mm
05:18 PM 89.3°F31.8°C 67.4°F19.7°C 39% 3.4 mph SE5.5 kmh SE 3.5 mph5.6 kmh 30.13 in1020.3 mb 0.00 in0.0 mm 0.00 in0.0 mm 0.00 in0.0 mm
05:21 PM 89.7°F32.1°C 67.2°F19.6°C 39% 1.9 mph ESE3.1 kmh ESE 2.0 mph3.2 kmh 30.13 in1020.3 mb 0.00 in0.0 mm 0.00 in0.0 mm 0.00 in0.0 mm
05:24 PM 89.0°F31.7°C 66.3°F19.1°C 38% 3.4 mph ESE5.5 kmh ESE 3.5 mph5.6 kmh 30.13 in1020.3 mb 0.00 in0.0 mm 0.00 in0.0 mm 0.00 in0.0 mm
05:27 PM 87.2°F30.7°C 67.6°F19.8°C 39% 2.4 mph SSW3.9 kmh SSW 2.4 mph3.9 kmh 30.13 in1020.3 mb 0.00 in0.0 mm 0.00 in0.0 mm 0.00 in0.0 mm
05:30 PM 87.5°F30.8°C 66.4°F19.1°C 38% 2.4 mph SSE3.9 kmh SSE 2.5 mph4.0 kmh 30.13 in1020.3 mb 0.00 in0.0 mm 0.00 in0.0 mm 0.00 in0.0 mm
05:33 PM 87.6°F30.9°C 65.8°F18.8°C 38% 0.8 mph S1.3 kmh S 0.8 mph1.3 kmh 30.13 in1020.3 mb 0.00 in0.0 mm 0.00 in0.0 mm 0.00 in0.0 mm
05:36 PM 88.9°F31.6°C 66.7°F19.3°C 39% 2.8 mph SE4.5 kmh SE 2.8 mph4.5 kmh 30.14 in1020.7 mb 0.00 in0.0 mm 0.00 in0.0 mm 0.00 in0.0 mm
05:39 PM 88.6°F31.4°C 66.1°F18.9°C 38% 0.8 mph SSW1.3 kmh SSW 0.8 mph1.3 kmh 30.13 in1020.3 mb 0.00 in0.0 mm 0.00 in0.0 mm 0.00 in0.0 mm
05:42 PM 88.6°F31.4°C 66.8°F19.3°C 39% 3.2 mph SSW5.1 kmh SSW 3.2 mph5.1 kmh 30.13 in1020.3 mb 0.00 in0.0 mm 0.00 in0.0 mm 0.00 in0.0 mm
05:45 PM 87.6°F30.9°C 67.3°F19.6°C 39% 0.8 mph NNW1.3 kmh NNW 0.8 mph1.3 kmh 30.13 in1020.3 mb 0.00 in0.0 mm 0.00 in0.0 mm 0.00 in0.0 mm
05:48 PM 87.2°F30.7°C 66.7°F19.3°C 39% 2.8 mph S4.5 kmh S 2.8 mph4.5 kmh 30.13 in1020.3 mb 0.00 in0.0 mm 0.00 in0.0 mm 0.00 in0.0 mm
05:51 PM 86.7°F30.4°C 65.6°F18.7°C 38% 3.6 mph ESE5.8 kmh ESE 3.7 mph6.0 kmh 30.13 in1020.3 mb 0.00 in0.0 mm 0.00 in0.0 mm 0.00 in0.0 mm
05:54 PM 87.5°F30.8°C 65.8°F18.8°C 38% 2.4 mph NNW3.9 kmh NNW 2.4 mph3.9 kmh 30.13 in1020.3 mb 0.00 in0.0 mm 0.00 in0.0 mm 0.00 in0.0 mm
05:57 PM 88.0°F31.1°C 66.3°F19.1°C 39% 2.0 mph SE3.2 kmh SE 2.0 mph3.2 kmh 30.13 in1020.3 mb 0.00 in0.0 mm 0.00 in0.0 mm 0.00 in0.0 mm
06:00 PM 87.8°F31.0°C 66.0°F18.9°C 38% 0.8 mph SE1.3 kmh SE 0.8 mph1.3 kmh 30.13 in1020.3 mb 0.00 in0.0 mm 0.00 in0.0 mm 0.00 in0.0 mm
06:03 PM 85.8°F29.9°C 65.8°F18.8°C 38% 2.0 mph NNW3.2 kmh NNW 2.0 mph3.2 kmh 30.14 in1020.7 mb 0.00 in0.0 mm 0.00 in0.0 mm 0.00 in0.0 mm
06:06 PM 86.9°F30.5°C 66.4°F19.1°C 39% 2.4 mph NNW3.9 kmh NNW 2.4 mph3.9 kmh 30.13 in1020.3 mb 0.00 in0.0 mm 0.00 in0.0 mm 0.00 in0.0 mm
06:09 PM 86.0°F30.0°C 65.4°F18.6°C 38% 1.2 mph NNW1.9 kmh NNW 1.2 mph1.9 kmh 30.14 in1020.7 mb 0.00 in0.0 mm 0.00 in0.0 mm 0.00 in0.0 mm
06:12 PM 86.0°F30.0°C 65.7°F18.7°C 39% 0.8 mph S1.3 kmh S 0.8 mph1.3 kmh 30.14 in1020.7 mb 0.00 in0.0 mm 0.00 in0.0 mm 0.00 in0.0 mm
06:15 PM 86.5°F30.3°C 65.6°F18.7°C 39% Calm Calm -- 30.14 in1020.7 mb 0.00 in0.0 mm 0.00 in0.0 mm 0.00 in0.0 mm
06:18 PM 85.7°F29.8°C 65.6°F18.7°C 39% 1.6 mph S2.6 kmh S 1.6 mph2.6 kmh 30.14 in1020.7 mb 0.00 in0.0 mm 0.00 in0.0 mm 0.00 in0.0 mm
06:21 PM 85.4°F29.7°C 64.8°F18.2°C 38% 2.0 mph NNW3.2 kmh NNW 2.0 mph3.2 kmh 30.14 in1020.7 mb 0.00 in0.0 mm 0.00 in0.0 mm 0.00 in0.0 mm
06:27 PM 85.0°F29.4°C 66.6°F19.2°C 40% 4.8 mph SW7.7 kmh SW 4.8 mph7.7 kmh 30.14 in1020.7 mb 0.00 in0.0 mm 0.00 in0.0 mm 0.00 in0.0 mm
06:30 PM 84.0°F28.9°C 65.6°F18.7°C 39% 2.0 mph WSW3.2 kmh WSW 2.0 mph3.2 kmh 30.14 in1020.7 mb 0.00 in0.0 mm 0.00 in0.0 mm 0.00 in0.0 mm
06:33 PM 84.7°F29.3°C 66.3°F19.1°C 40% 1.6 mph NNW2.6 kmh NNW 1.6 mph2.6 kmh 30.14 in1020.7 mb 0.00 in0.0 mm 0.00 in0.0 mm 0.00 in0.0 mm
06:36 PM 84.5°F29.2°C 65.5°F18.6°C 39% 2.0 mph SSE3.2 kmh SSE 2.0 mph3.2 kmh 30.14 in1020.7 mb 0.00 in0.0 mm 0.00 in0.0 mm 0.00 in0.0 mm
06:39 PM 84.8°F29.3°C 65.8°F18.8°C 40% 0.8 mph SSE1.3 kmh SSE 0.8 mph1.3 kmh 30.14 in1020.7 mb 0.00 in0.0 mm 0.00 in0.0 mm 0.00 in0.0 mm
06:45 PM 84.1°F28.9°C 65.5°F18.6°C 40% 1.2 mph SSE1.9 kmh SSE 1.2 mph1.9 kmh 30.14 in1020.7 mb 0.00 in0.0 mm 0.00 in0.0 mm 0.00 in0.0 mm
06:51 PM 83.6°F28.7°C 65.6°F18.7°C 41% Calm Calm -- 30.14 in1020.7 mb 0.00 in0.0 mm 0.00 in0.0 mm 0.00 in0.0 mm
06:54 PM 83.3°F28.5°C 65.3°F18.5°C 40% 0.8 mph S1.3 kmh S 0.8 mph1.3 kmh 30.14 in1020.7 mb 0.00 in0.0 mm 0.00 in0.0 mm 0.00 in0.0 mm
06:57 PM 83.1°F28.4°C 65.8°F18.8°C 41% 0.4 mph S0.6 kmh S 0.4 mph0.6 kmh 30.14 in1020.7 mb 0.00 in0.0 mm 0.00 in0.0 mm 0.00 in0.0 mm
07:00 PM 82.5°F28.1°C 65.7°F18.7°C 41% 2.4 mph SSW3.9 kmh SSW 2.4 mph3.9 kmh 30.14 in1020.7 mb 0.00 in0.0 mm 0.00 in0.0 mm 0.00 in0.0 mm
07:03 PM 82.6°F28.1°C 65.8°F18.8°C 41% 1.2 mph S1.9 kmh S 1.2 mph1.9 kmh 30.14 in1020.7 mb 0.00 in0.0 mm 0.00 in0.0 mm 0.00 in0.0 mm
07:06 PM 82.4°F28.0°C 65.3°F18.5°C 41% 1.2 mph SSE1.9 kmh SSE 1.2 mph1.9 kmh 30.14 in1020.7 mb 0.00 in0.0 mm 0.00 in0.0 mm 0.00 in0.0 mm
07:09 PM 82.4°F28.0°C 66.1°F18.9°C 42% 0.4 mph NNW0.6 kmh NNW 0.4 mph0.6 kmh 30.14 in1020.7 mb 0.00 in0.0 mm 0.00 in0.0 mm 0.00 in0.0 mm
07:12 PM 82.1°F27.8°C 66.0°F18.9°C 42% 1.5 mph NNW2.4 kmh NNW 1.5 mph2.4 kmh 30.14 in1020.7 mb 0.00 in0.0 mm 0.00 in0.0 mm 0.00 in0.0 mm
07:15 PM 82.0°F27.8°C 66.3°F19.1°C 43% 0.8 mph SSE1.3 kmh SSE 0.8 mph1.3 kmh 30.14 in1020.7 mb 0.00 in0.0 mm 0.00 in0.0 mm 0.00 in0.0 mm
07:18 PM 81.7°F27.6°C 65.3°F18.5°C 41% 1.2 mph SSE1.9 kmh SSE 1.2 mph1.9 kmh 30.14 in1020.7 mb 0.00 in0.0 mm 0.00 in0.0 mm 0.00 in0.0 mm
07:21 PM 81.6°F27.6°C 64.9°F18.3°C 41% 0.8 mph SSE1.3 kmh SSE 0.8 mph1.3 kmh 30.14 in1020.7 mb 0.00 in0.0 mm 0.00 in0.0 mm 0.00 in0.0 mm
07:24 PM 81.1°F27.3°C 65.3°F18.5°C 42% 0.8 mph SSE1.3 kmh SSE 0.8 mph1.3 kmh 30.14 in1020.7 mb 0.00 in0.0 mm 0.00 in0.0 mm 0.00 in0.0 mm
07:27 PM 81.1°F27.3°C 64.2°F17.9°C 41% 0.8 mph SSE1.3 kmh SSE 0.8 mph1.3 kmh 30.14 in1020.7 mb 0.00 in0.0 mm 0.00 in0.0 mm 0.00 in0.0 mm
07:30 PM 80.8°F27.1°C 65.3°F18.5°C 42% 1.2 mph SSE1.9 kmh SSE 1.2 mph1.9 kmh 30.15 in1021.0 mb 0.00 in0.0 mm 0.00 in0.0 mm 0.00 in0.0 mm
07:33 PM 80.2°F26.8°C 65.6°F18.7°C 43% 1.2 mph NNW1.9 kmh NNW 1.2 mph1.9 kmh 30.14 in1020.7 mb 0.00 in0.0 mm 0.00 in0.0 mm 0.00 in0.0 mm
07:36 PM 80.0°F26.7°C 65.6°F18.7°C 43% 1.2 mph SE1.9 kmh SE 1.2 mph1.9 kmh 30.14 in1020.7 mb 0.00 in0.0 mm 0.00 in0.0 mm 0.00 in0.0 mm
07:39 PM 79.5°F26.4°C 65.8°F18.8°C 44% 1.6 mph SE2.6 kmh SE 1.6 mph2.6 kmh 30.14 in1020.7 mb 0.00 in0.0 mm 0.00 in0.0 mm 0.00 in0.0 mm
07:42 PM 78.9°F26.1°C 66.0°F18.9°C 44% 1.6 mph SE2.6 kmh SE 1.6 mph2.6 kmh 30.14 in1020.7 mb 0.00 in0.0 mm 0.00 in0.0 mm 0.00 in0.0 mm
07:45 PM 78.6°F25.9°C 66.4°F19.1°C 45% 1.2 mph SE1.9 kmh SE 1.2 mph1.9 kmh 30.15 in1021.0 mb 0.00 in0.0 mm 0.00 in0.0 mm 0.00 in0.0 mm
07:48 PM 77.3°F25.2°C 68.3°F20.2°C 48% 0.8 mph SE1.3 kmh SE 0.8 mph1.3 kmh 30.15 in1021.0 mb 0.00 in0.0 mm 0.00 in0.0 mm 0.00 in0.0 mm
07:51 PM 76.7°F24.8°C 68.9°F20.5°C 49% 1.2 mph SE1.9 kmh SE 1.2 mph1.9 kmh 30.15 in1021.0 mb 0.00 in0.0 mm 0.00 in0.0 mm 0.00 in0.0 mm
07:54 PM 76.3°F24.6°C 68.9°F20.5°C 50% 1.2 mph SE1.9 kmh SE 1.2 mph1.9 kmh 30.15 in1021.0 mb 0.00 in0.0 mm 0.00 in0.0 mm 0.00 in0.0 mm
07:57 PM 75.8°F24.3°C 69.2°F20.7°C 51% 1.2 mph ESE1.9 kmh ESE 1.2 mph1.9 kmh 30.15 in1021.0 mb 0.00 in0.0 mm 0.00 in0.0 mm 0.00 in0.0 mm
08:00 PM 75.1°F23.9°C 68.6°F20.3°C 50% 1.6 mph SE2.6 kmh SE 1.6 mph2.6 kmh 30.15 in1021.0 mb 0.00 in0.0 mm 0.00 in0.0 mm 0.00 in0.0 mm
08:06 PM 74.8°F23.8°C 68.8°F20.4°C 52% 2.0 mph ESE3.2 kmh ESE 2.0 mph3.2 kmh 30.15 in1021.0 mb 0.00 in0.0 mm 0.00 in0.0 mm 0.00 in0.0 mm
08:09 PM 74.2°F23.4°C 69.2°F20.7°C 52% 2.0 mph SE3.2 kmh SE 2.0 mph3.2 kmh 30.15 in1021.0 mb 0.00 in0.0 mm 0.00 in0.0 mm 0.00 in0.0 mm
08:12 PM 73.5°F23.1°C 68.5°F20.3°C 52% 0.8 mph ESE1.3 kmh ESE 0.8 mph1.3 kmh 30.15 in1021.0 mb 0.00 in0.0 mm 0.00 in0.0 mm 0.00 in0.0 mm
08:15 PM 73.4°F23.0°C 68.4°F20.2°C 52% Calm Calm -- 30.15 in1021.0 mb 0.00 in0.0 mm 0.00 in0.0 mm 0.00 in0.0 mm
08:18 PM 73.5°F23.1°C 68.6°F20.3°C 53% 1.2 mph SE1.9 kmh SE 1.2 mph1.9 kmh 30.15 in1021.0 mb 0.00 in0.0 mm 0.00 in0.0 mm 0.00 in0.0 mm
08:21 PM 73.1°F22.8°C 68.3°F20.2°C 53% 1.6 mph ESE2.6 kmh ESE 1.6 mph2.6 kmh 30.15 in1021.0 mb 0.00 in0.0 mm 0.00 in0.0 mm 0.00 in0.0 mm
08:24 PM 72.6°F22.6°C 68.6°F20.3°C 54% 0.4 mph SE0.6 kmh SE 0.4 mph0.6 kmh 30.15 in1021.0 mb 0.00 in0.0 mm 0.00 in0.0 mm 0.00 in0.0 mm
08:30 PM 71.9°F22.2°C 68.5°F20.3°C 54% 1.6 mph SE2.6 kmh SE 1.6 mph2.6 kmh 30.15 in1021.0 mb 0.00 in0.0 mm 0.00 in0.0 mm 0.00 in0.0 mm
08:33 PM 71.2°F21.8°C 68.1°F20.1°C 54% Calm Calm -- 30.15 in1021.0 mb 0.00 in0.0 mm 0.00 in0.0 mm 0.00 in0.0 mm
08:36 PM 71.3°F21.8°C 67.9°F19.9°C 54% 0.4 mph SE0.6 kmh SE 0.4 mph0.6 kmh 30.16 in1021.3 mb 0.00 in0.0 mm 0.00 in0.0 mm 0.00 in0.0 mm
08:39 PM 71.2°F21.8°C 67.4°F19.7°C 54% 0.4 mph SE0.6 kmh SE 0.4 mph0.6 kmh 30.16 in1021.3 mb 0.00 in0.0 mm 0.00 in0.0 mm 0.00 in0.0 mm
08:42 PM 71.3°F21.8°C 67.4°F19.7°C 54% Calm Calm -- 30.16 in1021.3 mb 0.00 in0.0 mm 0.00 in0.0 mm 0.00 in0.0 mm
08:45 PM 71.3°F21.8°C 67.3°F19.6°C 54% Calm Calm -- 30.16 in1021.3 mb 0.00 in0.0 mm 0.00 in0.0 mm 0.00 in0.0 mm
08:51 PM 70.3°F21.3°C 67.6°F19.8°C 55% 1.6 mph ESE2.6 kmh ESE 1.6 mph2.6 kmh 30.16 in1021.3 mb 0.00 in0.0 mm 0.00 in0.0 mm 0.00 in0.0 mm
08:54 PM 69.5°F20.8°C 67.2°F19.6°C 55% 1.2 mph ESE1.9 kmh ESE 1.2 mph1.9 kmh 30.16 in1021.3 mb 0.00 in0.0 mm 0.00 in0.0 mm 0.00 in0.0 mm
08:57 PM 69.2°F20.7°C 67.1°F19.5°C 56% 1.6 mph NNW2.6 kmh NNW 1.6 mph2.6 kmh 30.16 in1021.3 mb 0.00 in0.0 mm 0.00 in0.0 mm 0.00 in0.0 mm
09:00 PM 69.0°F20.6°C 66.9°F19.4°C 56% 1.2 mph ESE1.9 kmh ESE 1.2 mph1.9 kmh 30.16 in1021.3 mb 0.00 in0.0 mm 0.00 in0.0 mm 0.00 in0.0 mm
09:03 PM 68.7°F20.4°C 67.2°F19.6°C 56% Calm Calm -- 30.16 in1021.3 mb 0.00 in0.0 mm 0.00 in0.0 mm 0.00 in0.0 mm
09:06 PM 67.6°F19.8°C 66.0°F18.9°C 55% Calm Calm -- 30.16 in1021.3 mb 0.00 in0.0 mm 0.00 in0.0 mm 0.00 in0.0 mm
09:09 PM 68.1°F20.1°C 66.2°F19.0°C 55% Calm Calm -- 30.16 in1021.3 mb 0.00 in0.0 mm 0.00 in0.0 mm 0.00 in0.0 mm
09:12 PM 68.0°F20.0°C 65.7°F18.7°C 55% 0.4 mph ESE0.6 kmh ESE 0.4 mph0.6 kmh 30.16 in1021.3 mb 0.00 in0.0 mm 0.00 in0.0 mm 0.00 in0.0 mm
09:15 PM 68.0°F20.0°C 66.1°F18.9°C 56% 2.4 mph ESE3.9 kmh ESE 2.4 mph3.9 kmh 30.16 in1021.3 mb 0.00 in0.0 mm 0.00 in0.0 mm 0.00 in0.0 mm
09:18 PM 68.3°F20.2°C 66.0°F18.9°C 56% Calm Calm -- 30.16 in1021.3 mb 0.00 in0.0 mm 0.00 in0.0 mm 0.00 in0.0 mm
09:21 PM 68.1°F20.1°C 65.1°F18.4°C 55% 2.4 mph SE3.9 kmh SE 2.4 mph3.9 kmh 30.16 in1021.3 mb 0.00 in0.0 mm 0.00 in0.0 mm 0.00 in0.0 mm
09:24 PM 68.5°F20.3°C 64.6°F18.1°C 54% 3.2 mph SE5.1 kmh SE 3.3 mph5.3 kmh 30.16 in1021.3 mb 0.00 in0.0 mm 0.00 in0.0 mm 0.00 in0.0 mm
09:27 PM 68.6°F20.3°C 64.2°F17.9°C 55% 2.8 mph NNW4.5 kmh NNW 2.9 mph4.7 kmh 30.16 in1021.3 mb 0.00 in0.0 mm 0.00 in0.0 mm 0.00 in0.0 mm
09:30 PM 68.9°F20.5°C 63.5°F17.5°C 53% 4.4 mph SE7.1 kmh SE 4.5 mph7.2 kmh 30.16 in1021.3 mb 0.00 in0.0 mm 0.00 in0.0 mm 0.00 in0.0 mm
09:33 PM 68.5°F20.3°C 62.8°F17.1°C 52% 3.2 mph SE5.1 kmh SE 3.2 mph5.1 kmh 30.16 in1021.3 mb 0.00 in0.0 mm 0.00 in0.0 mm 0.00 in0.0 mm
09:36 PM 69.9°F21.1°C 62.9°F17.2°C 52% 4.0 mph SE6.4 kmh SE 4.1 mph6.6 kmh 30.16 in1021.3 mb 0.00 in0.0 mm 0.00 in0.0 mm 0.00 in0.0 mm
09:39 PM 69.1°F20.6°C 62.5°F16.9°C 53% 3.4 mph SE5.5 kmh SE 3.4 mph5.5 kmh 30.16 in1021.3 mb 0.00 in0.0 mm 0.00 in0.0 mm 0.00 in0.0 mm
09:42 PM 69.7°F20.9°C 62.4°F16.9°C 52% 2.7 mph ESE4.3 kmh ESE 2.7 mph4.3 kmh 30.16 in1021.3 mb 0.00 in0.0 mm 0.00 in0.0 mm 0.00 in0.0 mm
09:45 PM 70.0°F21.1°C 63.0°F17.2°C 53% 2.8 mph SE4.5 kmh SE 2.8 mph4.5 kmh 30.16 in1021.3 mb 0.00 in0.0 mm 0.00 in0.0 mm 0.00 in0.0 mm
09:48 PM 70.1°F21.2°C 62.9°F17.2°C 52% 3.2 mph NNW5.1 kmh NNW 3.3 mph5.3 kmh 30.16 in1021.3 mb 0.00 in0.0 mm 0.00 in0.0 mm 0.00 in0.0 mm
09:54 PM 70.0°F21.1°C 62.8°F17.1°C 52% 4.8 mph ESE7.7 kmh ESE 4.8 mph7.7 kmh 30.16 in1021.3 mb 0.00 in0.0 mm 0.00 in0.0 mm 0.00 in0.0 mm
09:57 PM 68.9°F20.5°C 63.0°F17.2°C 53% 2.0 mph SE3.2 kmh SE 2.0 mph3.2 kmh 30.16 in1021.3 mb 0.00 in0.0 mm 0.00 in0.0 mm 0.00 in0.0 mm
10:00 PM 68.5°F20.3°C 63.9°F17.7°C 54% 2.4 mph SE3.9 kmh SE 2.5 mph4.0 kmh 30.16 in1021.3 mb 0.00 in0.0 mm 0.00 in0.0 mm 0.00 in0.0 mm
10:03 PM 68.9°F20.5°C 62.3°F16.8°C 53% 4.6 mph SE7.4 kmh SE 4.7 mph7.6 kmh 30.16 in1021.3 mb 0.00 in0.0 mm 0.00 in0.0 mm 0.00 in0.0 mm
10:06 PM 68.6°F20.3°C 62.7°F17.1°C 54% 2.8 mph SE4.5 kmh SE 2.9 mph4.7 kmh 30.16 in1021.3 mb 0.00 in0.0 mm 0.00 in0.0 mm 0.00 in0.0 mm
10:09 PM 69.0°F20.6°C 62.1°F16.7°C 53% 3.2 mph NNW5.1 kmh NNW 3.3 mph5.3 kmh 30.16 in1021.3 mb 0.00 in0.0 mm 0.00 in0.0 mm 0.00 in0.0 mm
10:12 PM 69.7°F20.9°C 61.8°F16.6°C 53% 3.6 mph SE5.8 kmh SE 3.7 mph6.0 kmh 30.16 in1021.3 mb 0.00 in0.0 mm 0.00 in0.0 mm 0.00 in0.0 mm
10:15 PM 69.8°F21.0°C 61.7°F16.5°C 53% 1.6 mph SE2.6 kmh SE 1.6 mph2.6 kmh 30.17 in1021.7 mb 0.00 in0.0 mm 0.00 in0.0 mm 0.00 in0.0 mm
10:18 PM 69.8°F21.0°C 62.0°F16.7°C 53% 5.6 mph ESE9.0 kmh ESE 5.6 mph9.0 kmh 30.17 in1021.7 mb 0.00 in0.0 mm 0.00 in0.0 mm 0.00 in0.0 mm
10:21 PM 70.4°F21.3°C 61.6°F16.4°C 52% 4.8 mph SE7.7 kmh SE 4.9 mph7.9 kmh 30.17 in1021.7 mb 0.00 in0.0 mm 0.00 in0.0 mm 0.00 in0.0 mm
10:24 PM 70.3°F21.3°C 61.5°F16.4°C 52% 3.2 mph SE5.1 kmh SE 3.3 mph5.3 kmh 30.17 in1021.7 mb 0.00 in0.0 mm 0.00 in0.0 mm 0.00 in0.0 mm
10:27 PM 70.0°F21.1°C 61.2°F16.2°C 53% 2.8 mph SE4.5 kmh SE 2.8 mph4.5 kmh 30.17 in1021.7 mb 0.00 in0.0 mm 0.00 in0.0 mm 0.00 in0.0 mm
10:30 PM 69.6°F20.9°C 61.2°F16.2°C 53% 3.2 mph SE5.1 kmh SE 3.3 mph5.3 kmh 30.17 in1021.7 mb 0.00 in0.0 mm 0.00 in0.0 mm 0.00 in0.0 mm
10:33 PM 69.2°F20.7°C 61.3°F16.3°C 53% 3.6 mph ESE5.8 kmh ESE 3.6 mph5.8 kmh 30.17 in1021.7 mb 0.00 in0.0 mm 0.00 in0.0 mm 0.00 in0.0 mm
10:36 PM 69.0°F20.6°C 61.1°F16.2°C 53% 2.8 mph SE4.5 kmh SE 2.8 mph4.5 kmh 30.18 in1022.0 mb 0.00 in0.0 mm 0.00 in0.0 mm 0.00 in0.0 mm
10:39 PM 68.8°F20.4°C 62.4°F16.9°C 54% 2.0 mph NNW3.2 kmh NNW 2.0 mph3.2 kmh 30.18 in1022.0 mb 0.00 in0.0 mm 0.00 in0.0 mm 0.00 in0.0 mm
10:42 PM 68.9°F20.5°C 61.2°F16.2°C 54% 2.7 mph NNW4.3 kmh NNW 2.8 mph4.5 kmh 30.18 in1022.0 mb 0.00 in0.0 mm 0.00 in0.0 mm 0.00 in0.0 mm
10:45 PM 68.6°F20.3°C 61.9°F16.6°C 54% 2.3 mph NNW3.7 kmh NNW 2.3 mph3.7 kmh 30.17 in1021.7 mb 0.00 in0.0 mm 0.00 in0.0 mm 0.00 in0.0 mm
10:48 PM 69.1°F20.6°C 61.2°F16.2°C 54% 3.1 mph SE5.0 kmh SE 3.3 mph5.3 kmh 30.17 in1021.7 mb 0.00 in0.0 mm 0.00 in0.0 mm 0.00 in0.0 mm
10:54 PM 68.7°F20.4°C 60.9°F16.1°C 54% 3.8 mph SE6.1 kmh SE 3.8 mph6.1 kmh 30.17 in1021.7 mb 0.00 in0.0 mm 0.00 in0.0 mm 0.00 in0.0 mm
10:57 PM 68.8°F20.4°C 60.5°F15.8°C 54% 2.8 mph SE4.5 kmh SE 2.9 mph4.7 kmh 30.17 in1021.7 mb 0.00 in0.0 mm 0.00 in0.0 mm 0.00 in0.0 mm
11:00 PM 68.1°F20.1°C 61.5°F16.4°C 54% 2.8 mph SE4.5 kmh SE 2.8 mph4.5 kmh 30.17 in1021.7 mb 0.00 in0.0 mm 0.00 in0.0 mm 0.00 in0.0 mm
11:03 PM 67.9°F19.9°C 61.8°F16.6°C 54% 2.8 mph SE4.5 kmh SE 2.8 mph4.5 kmh 30.18 in1022.0 mb 0.00 in0.0 mm 0.00 in0.0 mm 0.00 in0.0 mm
11:06 PM 68.0°F20.0°C 60.4°F15.8°C 54% 2.4 mph NNW3.9 kmh NNW 2.4 mph3.9 kmh 30.18 in1022.0 mb 0.00 in0.0 mm 0.00 in0.0 mm 0.00 in0.0 mm
11:09 PM 68.3°F20.2°C 60.7°F15.9°C 54% 4.0 mph SE6.4 kmh SE 4.1 mph6.6 kmh 30.18 in1022.0 mb 0.00 in0.0 mm 0.00 in0.0 mm 0.00 in0.0 mm
11:12 PM 67.8°F19.9°C 60.8°F16.0°C 55% 2.8 mph NNW4.5 kmh NNW 2.8 mph4.5 kmh 30.18 in1022.0 mb 0.00 in0.0 mm 0.00 in0.0 mm 0.00 in0.0 mm
11:15 PM 68.1°F20.1°C 61.1°F16.2°C 54% 3.4 mph SE5.5 kmh SE 3.4 mph5.5 kmh 30.18 in1022.0 mb 0.00 in0.0 mm 0.00 in0.0 mm 0.00 in0.0 mm
11:18 PM 68.3°F20.2°C 60.6°F15.9°C 55% 2.0 mph SE3.2 kmh SE 2.0 mph3.2 kmh 30.17 in1021.7 mb 0.00 in0.0 mm 0.00 in0.0 mm 0.00 in0.0 mm
11:21 PM 67.8°F19.9°C 61.4°F16.3°C 55% 2.0 mph ESE3.2 kmh ESE 2.0 mph3.2 kmh 30.17 in1021.7 mb 0.00 in0.0 mm 0.00 in0.0 mm 0.00 in0.0 mm
11:24 PM 67.8°F19.9°C 61.0°F16.1°C 55% 3.2 mph SE5.1 kmh SE 3.3 mph5.3 kmh 30.17 in1021.7 mb 0.00 in0.0 mm 0.00 in0.0 mm 0.00 in0.0 mm
11:27 PM 67.8°F19.9°C 61.2°F16.2°C 55% 1.6 mph SE2.6 kmh SE 1.6 mph2.6 kmh 30.16 in1021.3 mb 0.00 in0.0 mm 0.00 in0.0 mm 0.00 in0.0 mm
11:30 PM 67.4°F19.7°C 60.7°F15.9°C 56% 2.4 mph ESE3.9 kmh ESE 2.4 mph3.9 kmh 30.16 in1021.3 mb 0.00 in0.0 mm 0.00 in0.0 mm 0.00 in0.0 mm
11:33 PM 67.9°F19.9°C 60.4°F15.8°C 55% 2.8 mph SE4.5 kmh SE 2.8 mph4.5 kmh 30.17 in1021.7 mb 0.00 in0.0 mm 0.00 in0.0 mm 0.00 in0.0 mm
11:36 PM 67.8°F19.9°C 61.2°F16.2°C 55% 2.0 mph NNW3.2 kmh NNW 2.0 mph3.2 kmh 30.16 in1021.3 mb 0.00 in0.0 mm 0.00 in0.0 mm 0.00 in0.0 mm
11:39 PM 67.7°F19.8°C 60.4°F15.8°C 56% 3.2 mph SE5.1 kmh SE 3.2 mph5.1 kmh 30.16 in1021.3 mb 0.00 in0.0 mm 0.00 in0.0 mm 0.00 in0.0 mm
11:42 PM 67.8°F19.9°C 60.9°F16.1°C 55% 4.3 mph NNW6.9 kmh NNW 4.4 mph7.1 kmh 30.16 in1021.3 mb 0.00 in0.0 mm 0.00 in0.0 mm 0.00 in0.0 mm
11:45 PM 68.0°F20.0°C 59.8°F15.4°C 55% 2.8 mph NNW4.5 kmh NNW 2.8 mph4.5 kmh 30.16 in1021.3 mb 0.00 in0.0 mm 0.00 in0.0 mm 0.00 in0.0 mm
11:48 PM 67.6°F19.8°C 60.6°F15.9°C 55% 2.4 mph NNW3.9 kmh NNW 2.4 mph3.9 kmh 30.16 in1021.3 mb 0.00 in0.0 mm 0.00 in0.0 mm 0.00 in0.0 mm
11:51 PM 67.4°F19.7°C 60.2°F15.7°C 55% 2.3 mph NNW3.7 kmh NNW 2.4 mph3.9 kmh 30.16 in1021.3 mb 0.00 in0.0 mm 0.00 in0.0 mm 0.00 in0.0 mm
11:54 PM 67.1°F19.5°C 60.8°F16.0°C 56% 2.3 mph SE3.7 kmh SE 2.3 mph3.7 kmh 30.17 in1021.7 mb 0.00 in0.0 mm 0.00 in0.0 mm 0.00 in0.0 mm
11:57 PM 67.4°F19.7°C 61.2°F16.2°C 56% 3.1 mph SE5.0 kmh SE 3.1 mph5.0 kmh 30.17 in1021.7 mb 0.00 in0.0 mm 0.00 in0.0 mm 0.00 in0.0 mm